Wetterdaten: Montag, 24.08.2015
Datum Zeit Temp. Aussen +5cm Feuchte Auss BlattFeu 1 Luftdruck Regen Sonnenschein Regendauer Solar Windben
24.08.2015 00:00 18,6 C 16,1 C 91 % 15 lf 1003,9 hPa 0,0 l/m 0 min 2 min 0 W/m 8,4 km/h (2 Bft)
24.08.2015 00:02 18,6 C 16,1 C 91 % 15 lf 1004,0 hPa 0,2 l/m 0 min 2 min 0 W/m 10,5 km/h (2 Bft)
24.08.2015 00:05 18,6 C 16,1 C 91 % 15 lf 1004,0 hPa 0,4 l/m 0 min 2 min 0 W/m 10,5 km/h (2 Bft)
24.08.2015 00:07 18,6 C 16,1 C 91 % 15 lf 1004,1 hPa 0,6 l/m 0 min 2 min 0 W/m 10,5 km/h (2 Bft)
24.08.2015 00:10 18,5 C 16,1 C 92 % 15 lf 1004,0 hPa 0,0 l/m 0 min 2 min 0 W/m 16,7 km/h (3 Bft)
24.08.2015 00:12 18,4 C 16,1 C 92 % 15 lf 1004,0 hPa 0,2 l/m 0 min 2 min 0 W/m 14,6 km/h (3 Bft)
24.08.2015 00:14 18,4 C 16,1 C 92 % 15 lf 1004,0 hPa 0,2 l/m 0 min 2 min 0 W/m 20,9 km/h (4 Bft)
24.08.2015 00:16 18,3 C 15,6 C 91 % 15 lf 1004,0 hPa 0,4 l/m 0 min 2 min 0 W/m 14,6 km/h (3 Bft)
24.08.2015 00:18 18,2 C 15,6 C 92 % 15 lf 1004,0 hPa 0,0 l/m 0 min 2 min 0 W/m 20,9 km/h (4 Bft)
24.08.2015 00:20 18,2 C 15,6 C 92 % 15 lf 1004,0 hPa 0,2 l/m 0 min 2 min 0 W/m 14,6 km/h (3 Bft)
24.08.2015 00:22 18,1 C 15,6 C 92 % 15 lf 1004,0 hPa 0,2 l/m 0 min 2 min 0 W/m 10,5 km/h (2 Bft)
24.08.2015 00:24 18,1 C 15,6 C 92 % 15 lf 1003,9 hPa 0,0 l/m 0 min 2 min 0 W/m 12,6 km/h (3 Bft)
24.08.2015 00:26 18,0 C 15,6 C 92 % 15 lf 1003,9 hPa 0,2 l/m 0 min 2 min 0 W/m 10,5 km/h (2 Bft)
24.08.2015 00:28 18,0 C 15,6 C 92 % 15 lf 1004,0 hPa 0,2 l/m 0 min 2 min 0 W/m 10,5 km/h (2 Bft)
24.08.2015 00:30 17,9 C 15,6 C 92 % 15 lf 1003,8 hPa 0,0 l/m 0 min 2 min 0 W/m 10,5 km/h (2 Bft)
24.08.2015 00:32 17,9 C 15,6 C 92 % 15 lf 1003,9 hPa 0,2 l/m 0 min 2 min 0 W/m 6,3 km/h (2 Bft)
24.08.2015 00:34 17,9 C 15,6 C 92 % 15 lf 1003,8 hPa 0,0 l/m 0 min 2 min 0 W/m 8,4 km/h (2 Bft)
24.08.2015 00:36 17,9 C 15,6 C 92 % 15 lf 1003,7 hPa 0,2 l/m 0 min 2 min 0 W/m 10,5 km/h (2 Bft)
24.08.2015 00:38 17,8 C 15,6 C 92 % 15 lf 1003,7 hPa 0,2 l/m 0 min 2 min 0 W/m 6,3 km/h (2 Bft)
24.08.2015 00:40 17,8 C 15,6 C 93 % 15 lf 1003,7 hPa 0,2 l/m 0 min 2 min 0 W/m 8,4 km/h (2 Bft)
24.08.2015 00:42 17,8 C 15,6 C 93 % 15 lf 1003,7 hPa 0,0 l/m 0 min 2 min 0 W/m 6,3 km/h (2 Bft)
24.08.2015 00:44 17,8 C 15,6 C 93 % 15 lf 1003,7 hPa 0,2 l/m 0 min 2 min 0 W/m 8,4 km/h (2 Bft)
24.08.2015 00:46 17,7 C 15,6 C 93 % 15 lf 1003,7 hPa 0,0 l/m 0 min 2 min 0 W/m 10,5 km/h (2 Bft)
24.08.2015 00:48 17,7 C 15,6 C 93 % 15 lf 1003,7 hPa 0,2 l/m 0 min 2 min 0 W/m 8,4 km/h (2 Bft)
24.08.2015 00:50 17,7 C 15,6 C 93 % 15 lf 1003,6 hPa 0,0 l/m 0 min 2 min 0 W/m 10,5 km/h (2 Bft)
24.08.2015 00:52 17,7 C 15,6 C 93 % 15 lf 1003,7 hPa 0,0 l/m 0 min 2 min 0 W/m 6,3 km/h (2 Bft)
24.08.2015 00:54 17,7 C 15,6 C 93 % 15 lf 1003,7 hPa 0,0 l/m 0 min 2 min 0 W/m 10,5 km/h (2 Bft)
24.08.2015 00:56 17,7 C 15,6 C 93 % 15 lf 1003,7 hPa 0,0 l/m 0 min 2 min 0 W/m 14,6 km/h (3 Bft)
24.08.2015 00:58 17,7 C 15,6 C 93 % 15 lf 1003,7 hPa 0,0 l/m 0 min 2 min 0 W/m 10,5 km/h (2 Bft)
24.08.2015 01:00 17,6 C 15,6 C 94 % 15 lf 1003,7 hPa 0,2 l/m 0 min 2 min 0 W/m 8,4 km/h (2 Bft)
24.08.2015 01:02 17,6 C 15,6 C 94 % 15 lf 1003,6 hPa 0,0 l/m 0 min 2 min 0 W/m 12,6 km/h (3 Bft)
24.08.2015 01:04 17,6 C 15,6 C 94 % 15 lf 1003,6 hPa 0,2 l/m 0 min 2 min 0 W/m 10,5 km/h (2 Bft)
24.08.2015 01:06 17,6 C 15,6 C 94 % 15 lf 1003,6 hPa 0,0 l/m 0 min 2 min 0 W/m 6,3 km/h (2 Bft)
24.08.2015 01:08 17,6 C 15,6 C 94 % 15 lf 1003,6 hPa 0,0 l/m 0 min 2 min 0 W/m 10,5 km/h (2 Bft)
24.08.2015 01:10 17,6 C 15,6 C 94 % 15 lf 1003,6 hPa 0,2 l/m 0 min 2 min 0 W/m 10,5 km/h (2 Bft)
24.08.2015 01:12 17,6 C 15,6 C 94 % 15 lf 1003,7 hPa 0,2 l/m 0 min 2 min 0 W/m 10,5 km/h (2 Bft)
24.08.2015 01:14 17,5 C 15,6 C 94 % 15 lf 1003,6 hPa 0,0 l/m 0 min 2 min 0 W/m 6,3 km/h (2 Bft)
24.08.2015 01:16 17,5 C 15,6 C 94 % 15 lf 1003,6 hPa 0,2 l/m 0 min 2 min 0 W/m 10,5 km/h (2 Bft)
24.08.2015 01:18 17,5 C 15,6 C 94 % 15 lf 1003,6 hPa 0,0 l/m 0 min 2 min 0 W/m 6,3 km/h (2 Bft)
24.08.2015 01:20 17,4 C 15,6 C 95 % 15 lf 1003,5 hPa 0,0 l/m 0 min 2 min 0 W/m 6,3 km/h (2 Bft)
24.08.2015 01:22 17,4 C 15,6 C 95 % 15 lf 1003,6 hPa 0,2 l/m 0 min 2 min 0 W/m 6,3 km/h (2 Bft)
24.08.2015 01:24 17,4 C 15,6 C 94 % 15 lf 1003,5 hPa 0,0 l/m 0 min 2 min 0 W/m 6,3 km/h (2 Bft)
24.08.2015 01:26 17,4 C 15,6 C 94 % 15 lf 1003,4 hPa 0,0 l/m 0 min 2 min 0 W/m 4,2 km/h (1 Bft)
24.08.2015 01:28 17,4 C 15,6 C 95 % 15 lf 1003,4 hPa 0,2 l/m 0 min 2 min 0 W/m 4,2 km/h (1 Bft)
24.08.2015 01:30 17,4 C 15,6 C 95 % 15 lf 1003,4 hPa 0,0 l/m 0 min 2 min 0 W/m 4,2 km/h (1 Bft)
24.08.2015 01:32 17,4 C 15,6 C 95 % 15 lf 1003,4 hPa 0,0 l/m 0 min 2 min 0 W/m 4,2 km/h (1 Bft)
24.08.2015 01:34 17,3 C 15,6 C 95 % 15 lf 1003,4 hPa 0,0 l/m 0 min 2 min 0 W/m 4,2 km/h (1 Bft)
24.08.2015 01:36 17,3 C 15,6 C 95 % 15 lf 1003,4 hPa 0,0 l/m 0 min 2 min 0 W/m 2,1 km/h (1 Bft)
24.08.2015 01:38 17,3 C 15,6 C 95 % 15 lf 1003,3 hPa 0,0 l/m 0 min 2 min 0 W/m 4,2 km/h (1 Bft)
24.08.2015 01:40 17,3 C 15,6 C 95 % 15 lf 1003,3 hPa 0,0 l/m 0 min 2 min 0 W/m 6,3 km/h (2 Bft)
24.08.2015 01:42 17,3 C 15,6 C 95 % 15 lf 1003,3 hPa 0,0 l/m 0 min 0 min 0 W/m 6,3 km/h (2 Bft)
24.08.2015 01:44 17,3 C 15,6 C 95 % 15 lf 1003,4 hPa 0,0 l/m 0 min 0 min 0 W/m 4,2 km/h (1 Bft)
24.08.2015 01:46 17,3 C 15,6 C 95 % 15 lf 1003,5 hPa 0,0 l/m 0 min 0 min 0 W/m 4,2 km/h (1 Bft)
24.08.2015 01:48 17,3 C 15,6 C 95 % 15 lf 1003,6 hPa 0,0 l/m 0 min 0 min 0 W/m 6,3 km/h (2 Bft)
24.08.2015 01:50 17,3 C 15,6 C 95 % 15 lf 1003,7 hPa 0,0 l/m 0 min 2 min 0 W/m 4,2 km/h (1 Bft)
24.08.2015 01:52 17,3 C 15,6 C 95 % 15 lf 1003,7 hPa 0,0 l/m 0 min 0 min 0 W/m 6,3 km/h (2 Bft)
24.08.2015 01:54 17,3 C 15,6 C 95 % 15 lf 1003,7 hPa 0,0 l/m 0 min 0 min 0 W/m 6,3 km/h (2 Bft)
24.08.2015 01:56 17,3 C 15,6 C 95 % 15 lf 1003,6 hPa 0,0 l/m 0 min 0 min 0 W/m 6,3 km/h (2 Bft)
24.08.2015 01:58 17,2 C 15,6 C 95 % 15 lf 1003,6 hPa 0,0 l/m 0 min 0 min 0 W/m 6,3 km/h (2 Bft)
24.08.2015 02:00 17,2 C 15,6 C 95 % 15 lf 1003,6 hPa 0,0 l/m 0 min 0 min 0 W/m 4,2 km/h (1 Bft)
24.08.2015 02:02 17,2 C 15,6 C 95 % 15 lf 1003,6 hPa 0,0 l/m 0 min 0 min 0 W/m 6,3 km/h (2 Bft)
24.08.2015 02:04 17,2 C 15,6 C 95 % 15 lf 1003,6 hPa 0,0 l/m 0 min 0 min 0 W/m 4,2 km/h (1 Bft)
24.08.2015 02:06 17,2 C 15,6 C 95 % 15 lf 1003,6 hPa 0,0 l/m 0 min 0 min 0 W/m 4,2 km/h (1 Bft)
24.08.2015 02:08 17,2 C 15,6 C 95 % 15 lf 1003,6 hPa 0,0 l/m 0 min 0 min 0 W/m 6,3 km/h (2 Bft)
24.08.2015 02:10 17,2 C 15,6 C 95 % 15 lf 1003,7 hPa 0,0 l/m 0 min 0 min 0 W/m 6,3 km/h (2 Bft)
24.08.2015 02:12 17,2 C 15,6 C 96 % 15 lf 1003,6 hPa 0,0 l/m 0 min 0 min 0 W/m 4,2 km/h (1 Bft)
24.08.2015 02:14 17,2 C 15,6 C 96 % 15 lf 1003,6 hPa 0,0 l/m 0 min 0 min 0 W/m 6,3 km/h (2 Bft)
24.08.2015 02:16 17,2 C 15,6 C 96 % 15 lf 1003,7 hPa 0,0 l/m 0 min 0 min 0 W/m 4,2 km/h (1 Bft)
24.08.2015 02:18 17,2 C 15,6 C 95 % 15 lf 1003,7 hPa 0,0 l/m 0 min 0 min 0 W/m 4,2 km/h (1 Bft)
24.08.2015 02:20 17,1 C 15,6 C 95 % 15 lf 1003,7 hPa 0,0 l/m 0 min 0 min 0 W/m 6,3 km/h (2 Bft)
24.08.2015 02:22 17,1 C 15,6 C 95 % 15 lf 1003,7 hPa 0,0 l/m 0 min 0 min 0 W/m 4,2 km/h (1 Bft)
24.08.2015 02:24 17,1 C 15,6 C 95 % 15 lf 1003,6 hPa 0,0 l/m 0 min 0 min 0 W/m 4,2 km/h (1 Bft)
24.08.2015 02:26 17,1 C 15,6 C 96 % 15 lf 1003,7 hPa 0,0 l/m 0 min 0 min 0 W/m 6,3 km/h (2 Bft)
24.08.2015 02:28 17,1 C 15,6 C 96 % 15 lf 1003,6 hPa 0,0 l/m 0 min 0 min 0 W/m 6,3 km/h (2 Bft)
24.08.2015 02:30 17,1 C 15,6 C 96 % 15 lf 1003,7 hPa 0,0 l/m 0 min 0 min 0 W/m 6,3 km/h (2 Bft)
24.08.2015 02:32 17,1 C 15,6 C 96 % 15 lf 1003,7 hPa 0,0 l/m 0 min 0 min 0 W/m 6,3 km/h (2 Bft)
24.08.2015 02:34 17,1 C 15,6 C 96 % 15 lf 1003,7 hPa 0,0 l/m 0 min 0 min 0 W/m 6,3 km/h (2 Bft)
24.08.2015 02:36 17,1 C 15,6 C 96 % 15 lf 1003,7 hPa 0,0 l/m 0 min 0 min 0 W/m 6,3 km/h (2 Bft)
24.08.2015 02:38 17,1 C 15,6 C 96 % 15 lf 1003,8 hPa 0,0 l/m 0 min 0 min 0 W/m 8,4 km/h (2 Bft)
24.08.2015 02:40 17,1 C 15,6 C 96 % 15 lf 1003,7 hPa 0,0 l/m 0 min 0 min 0 W/m 2,1 km/h (1 Bft)
24.08.2015 02:42 17,1 C 15,6 C 96 % 15 lf 1003,7 hPa 0,0 l/m 0 min 0 min 0 W/m 6,3 km/h (2 Bft)
24.08.2015 02:44 17,1 C 15,6 C 96 % 15 lf 1003,7 hPa 0,0 l/m 0 min 0 min 0 W/m 4,2 km/h (1 Bft)
24.08.2015 02:46 17,1 C 15,6 C 96 % 15 lf 1003,7 hPa 0,0 l/m 0 min 0 min 0 W/m 4,2 km/h (1 Bft)
24.08.2015 02:48 17,0 C 15,6 C 96 % 15 lf 1003,7 hPa 0,0 l/m 0 min 0 min 0 W/m 4,2 km/h (1 Bft)
24.08.2015 02:50 17,0 C 15,6 C 96 % 15 lf 1003,7 hPa 0,0 l/m 0 min 0 min 0 W/m 6,3 km/h (2 Bft)
24.08.2015 02:52 17,0 C 15,0 C 96 % 15 lf 1003,7 hPa 0,0 l/m 0 min 0 min 0 W/m 8,4 km/h (2 Bft)
24.08.2015 02:54 17,0 C 15,0 C 96 % 15 lf 1003,7 hPa 0,0 l/m 0 min 0 min 0 W/m 6,3 km/h (2 Bft)
24.08.2015 02:56 17,0 C 15,6 C 96 % 15 lf 1003,7 hPa 0,0 l/m 0 min 0 min 0 W/m 6,3 km/h (2 Bft)
24.08.2015 02:58 17,0 C 15,6 C 96 % 15 lf 1003,7 hPa 0,0 l/m 0 min 0 min 0 W/m 2,1 km/h (1 Bft)
24.08.2015 03:00 16,9 C 15,6 C 96 % 15 lf 1003,7 hPa 0,0 l/m 0 min 0 min 0 W/m 4,2 km/h (1 Bft)
24.08.2015 03:02 16,9 C 15,6 C 96 % 15 lf 1003,7 hPa 0,0 l/m 0 min 0 min 0 W/m 4,2 km/h (1 Bft)
24.08.2015 03:04 16,9 C 15,6 C 96 % 15 lf 1003,7 hPa 0,0 l/m 0 min 0 min 0 W/m 4,2 km/h (1 Bft)
24.08.2015 03:06 16,9 C 15,0 C 96 % 15 lf 1003,7 hPa 0,0 l/m 0 min 0 min 0 W/m 4,2 km/h (1 Bft)
24.08.2015 03:08 16,9 C 15,0 C 96 % 15 lf 1003,7 hPa 0,0 l/m 0 min 0 min 0 W/m 2,1 km/h (1 Bft)
24.08.2015 03:10 16,9 C 15,0 C 96 % 15 lf 1003,7 hPa 0,0 l/m 0 min 0 min 0 W/m 4,2 km/h (1 Bft)
24.08.2015 03:12 16,9 C 15,0 C 96 % 15 lf 1003,7 hPa 0,0 l/m 0 min 0 min 0 W/m 2,1 km/h (1 Bft)
24.08.2015 03:14 16,9 C 15,0 C 96 % 15 lf 1003,6 hPa 0,0 l/m 0 min 0 min 0 W/m 2,1 km/h (1 Bft)
24.08.2015 03:16 16,9 C 15,0 C 96 % 15 lf 1003,6 hPa 0,0 l/m 0 min 0 min 0 W/m 2,1 km/h (1 Bft)
24.08.2015 03:18 16,9 C 15,0 C 96 % 15 lf 1003,7 hPa 0,2 l/m 0 min 0 min 0 W/m 2,1 km/h (1 Bft)
24.08.2015 03:20 16,8 C 15,0 C 96 % 15 lf 1003,6 hPa 0,0 l/m 0 min 0 min 0 W/m 2,1 km/h (1 Bft)
24.08.2015 03:22 16,8 C 15,0 C 96 % 15 lf 1003,6 hPa 0,0 l/m 0 min 0 min 0 W/m 2,1 km/h (1 Bft)
24.08.2015 03:24 16,8 C 15,0 C 96 % 15 lf 1003,6 hPa 0,0 l/m 0 min 0 min 0 W/m 2,1 km/h (1 Bft)
24.08.2015 03:26 16,8 C 15,0 C 96 % 15 lf 1003,6 hPa 0,0 l/m 0 min 0 min 0 W/m 2,1 km/h (1 Bft)
24.08.2015 03:28 16,8 C 15,0 C 96 % 15 lf 1003,5 hPa 0,0 l/m 0 min 0 min 0 W/m 2,1 km/h (1 Bft)
24.08.2015 03:30 16,8 C 15,0 C 96 % 15 lf 1003,4 hPa 0,0 l/m 0 min 0 min 0 W/m 2,1 km/h (1 Bft)
24.08.2015 03:32 16,7 C 15,0 C 96 % 15 lf 1003,4 hPa 0,0 l/m 0 min 0 min 0 W/m 4,2 km/h (1 Bft)
24.08.2015 03:34 16,7 C 15,0 C 96 % 15 lf 1003,5 hPa 0,0 l/m 0 min 0 min 0 W/m 4,2 km/h (1 Bft)
24.08.2015 03:36 16,7 C 15,0 C 96 % 15 lf 1003,5 hPa 0,0 l/m 0 min 0 min 0 W/m 4,2 km/h (1 Bft)
24.08.2015 03:38 16,7 C 15,0 C 96 % 15 lf 1003,5 hPa 0,0 l/m 0 min 0 min 0 W/m 4,2 km/h (1 Bft)
24.08.2015 03:40 16,7 C 15,0 C 96 % 15 lf 1003,5 hPa 0,0 l/m 0 min 0 min 0 W/m 6,3 km/h (2 Bft)
24.08.2015 03:42 16,7 C 15,6 C 96 % 15 lf 1003,6 hPa 0,0 l/m 0 min 0 min 0 W/m 8,4 km/h (2 Bft)
24.08.2015 03:44 16,7 C 15,6 C 96 % 15 lf 1003,6 hPa 0,0 l/m 0 min 0 min 0 W/m 8,4 km/h (2 Bft)
24.08.2015 03:46 16,7 C 15,6 C 96 % 15 lf 1003,6 hPa 0,0 l/m 0 min 0 min 0 W/m 4,2 km/h (1 Bft)
24.08.2015 03:48 16,7 C 15,6 C 96 % 15 lf 1003,6 hPa 0,0 l/m 0 min 0 min 0 W/m 6,3 km/h (2 Bft)
24.08.2015 03:50 16,7 C 15,6 C 96 % 15 lf 1003,6 hPa 0,0 l/m 0 min 0 min 0 W/m 6,3 km/h (2 Bft)
24.08.2015 03:52 16,7 C 15,6 C 96 % 15 lf 1003,6 hPa 0,0 l/m 0 min 0 min 0 W/m 6,3 km/h (2 Bft)
24.08.2015 03:54 16,7 C 15,6 C 96 % 15 lf 1003,6 hPa 0,0 l/m 0 min 0 min 0 W/m 6,3 km/h (2 Bft)
24.08.2015 03:56 16,7 C 15,6 C 96 % 15 lf 1003,6 hPa 0,0 l/m 0 min 0 min 0 W/m 6,3 km/h (2 Bft)
24.08.2015 03:58 16,7 C 15,6 C 96 % 15 lf 1003,6 hPa 0,0 l/m 0 min 0 min 0 W/m 6,3 km/h (2 Bft)
24.08.2015 04:00 16,7 C 15,6 C 97 % 15 lf 1003,6 hPa 0,0 l/m 0 min 0 min 0 W/m 8,4 km/h (2 Bft)
24.08.2015 04:02 16,7 C 15,6 C 97 % 15 lf 1003,6 hPa 0,0 l/m 0 min 0 min 0 W/m 6,3 km/h (2 Bft)
24.08.2015 04:04 16,7 C 15,6 C 97 % 15 lf 1003,6 hPa 0,0 l/m 0 min 0 min 0 W/m 4,2 km/h (1 Bft)
24.08.2015 04:06 16,7 C 15,6 C 97 % 15 lf 1003,5 hPa 0,0 l/m 0 min 0 min 0 W/m 4,2 km/h (1 Bft)
24.08.2015 04:08 16,7 C 15,6 C 97 % 15 lf 1003,6 hPa 0,0 l/m 0 min 0 min 0 W/m 6,3 km/h (2 Bft)
24.08.2015 04:10 16,7 C 15,6 C 97 % 15 lf 1003,5 hPa 0,0 l/m 0 min 0 min 0 W/m 4,2 km/h (1 Bft)
24.08.2015 04:12 16,7 C 15,6 C 97 % 15 lf 1003,5 hPa 0,0 l/m 0 min 0 min 0 W/m 8,4 km/h (2 Bft)
24.08.2015 04:14 16,7 C 15,6 C 97 % 15 lf 1003,5 hPa 0,0 l/m 0 min 0 min 0 W/m 6,3 km/h (2 Bft)
24.08.2015 04:16 16,7 C 15,6 C 97 % 15 lf 1003,5 hPa 0,0 l/m 0 min 0 min 0 W/m 8,4 km/h (2 Bft)
24.08.2015 04:18 16,7 C 15,6 C 97 % 15 lf 1003,5 hPa 0,0 l/m 0 min 0 min 0 W/m 6,3 km/h (2 Bft)
24.08.2015 04:20 16,7 C 15,0 C 97 % 15 lf 1003,5 hPa 0,0 l/m 0 min 0 min 0 W/m 6,3 km/h (2 Bft)
24.08.2015 04:22 16,7 C 15,0 C 97 % 15 lf 1003,5 hPa 0,0 l/m 0 min 0 min 0 W/m 6,3 km/h (2 Bft)
24.08.2015 04:24 16,7 C 15,0 C 97 % 15 lf 1003,5 hPa 0,0 l/m 0 min 0 min 0 W/m 6,3 km/h (2 Bft)
24.08.2015 04:26 16,7 C 15,0 C 97 % 15 lf 1003,6 hPa 0,0 l/m 0 min 0 min 0 W/m 4,2 km/h (1 Bft)
24.08.2015 04:28 16,7 C 15,0 C 97 % 15 lf 1003,4 hPa 0,0 l/m 0 min 0 min 0 W/m 4,2 km/h (1 Bft)
24.08.2015 04:30 16,7 C 15,0 C 97 % 15 lf 1003,5 hPa 0,0 l/m 0 min 0 min 0 W/m 4,2 km/h (1 Bft)
24.08.2015 04:32 16,7 C 15,0 C 97 % 15 lf 1003,4 hPa 0,0 l/m 0 min 0 min 0 W/m 6,3 km/h (2 Bft)
24.08.2015 04:34 16,7 C 15,0 C 97 % 15 lf 1003,4 hPa 0,0 l/m 0 min 0 min 0 W/m 4,2 km/h (1 Bft)
24.08.2015 04:36 16,7 C 15,0 C 97 % 15 lf 1003,3 hPa 0,0 l/m 0 min 0 min 0 W/m 4,2 km/h (1 Bft)
24.08.2015 04:38 16,7 C 15,0 C 97 % 15 lf 1003,3 hPa 0,0 l/m 0 min 0 min 0 W/m 6,3 km/h (2 Bft)
24.08.2015 04:40 16,7 C 15,0 C 97 % 15 lf 1003,3 hPa 0,0 l/m 0 min 0 min 0 W/m 2,1 km/h (1 Bft)
24.08.2015 04:42 16,7 C 15,0 C 97 % 15 lf 1003,3 hPa 0,0 l/m 0 min 0 min 0 W/m 4,2 km/h (1 Bft)
24.08.2015 04:44 16,7 C 14,4 C 97 % 15 lf 1003,4 hPa 0,0 l/m 0 min 0 min 0 W/m 4,2 km/h (1 Bft)
24.08.2015 04:46 16,6 C 14,4 C 97 % 15 lf 1003,4 hPa 0,0 l/m 0 min 0 min 0 W/m 6,3 km/h (2 Bft)
24.08.2015 04:48 16,6 C 15,0 C 97 % 15 lf 1003,4 hPa 0,0 l/m 0 min 0 min 0 W/m 6,3 km/h (2 Bft)
24.08.2015 04:50 16,6 C 15,0 C 97 % 15 lf 1003,4 hPa 0,0 l/m 0 min 0 min 0 W/m 6,3 km/h (2 Bft)
24.08.2015 04:52 16,6 C 15,0 C 97 % 15 lf 1003,4 hPa 0,0 l/m 0 min 0 min 0 W/m 8,4 km/h (2 Bft)
24.08.2015 04:54 16,6 C 15,0 C 97 % 15 lf 1003,3 hPa 0,0 l/m 0 min 0 min 0 W/m 4,2 km/h (1 Bft)
24.08.2015 04:56 16,6 C 15,0 C 97 % 15 lf 1003,5 hPa 0,0 l/m 0 min 0 min 0 W/m 6,3 km/h (2 Bft)
24.08.2015 04:58 16,6 C 15,0 C 97 % 15 lf 1003,4 hPa 0,0 l/m 0 min 0 min 0 W/m 6,3 km/h (2 Bft)
24.08.2015 05:00 16,5 C 15,0 C 97 % 15 lf 1003,4 hPa 0,0 l/m 0 min 0 min 0 W/m 4,2 km/h (1 Bft)
24.08.2015 05:02 16,5 C 15,0 C 97 % 15 lf 1003,4 hPa 0,0 l/m 0 min 0 min 0 W/m 4,2 km/h (1 Bft)
24.08.2015 05:04 16,5 C 15,0 C 97 % 15 lf 1003,4 hPa 0,0 l/m 0 min 0 min 0 W/m 4,2 km/h (1 Bft)
24.08.2015 05:06 16,5 C 15,0 C 97 % 15 lf 1003,4 hPa 0,0 l/m 0 min 0 min 0 W/m 4,2 km/h (1 Bft)
24.08.2015 05:08 16,5 C 15,0 C 97 % 15 lf 1003,4 hPa 0,0 l/m 0 min 0 min 0 W/m 4,2 km/h (1 Bft)
24.08.2015 05:10 16,4 C 15,0 C 97 % 15 lf 1003,4 hPa 0,0 l/m 0 min 0 min 0 W/m 4,2 km/h (1 Bft)
24.08.2015 05:12 16,5 C 15,0 C 97 % 15 lf 1003,4 hPa 0,0 l/m 0 min 0 min 0 W/m 6,3 km/h (2 Bft)
24.08.2015 05:14 16,4 C 15,0 C 97 % 15 lf 1003,3 hPa 0,0 l/m 0 min 0 min 0 W/m 6,3 km/h (2 Bft)
24.08.2015 05:16 16,4 C 15,0 C 97 % 15 lf 1003,4 hPa 0,0 l/m 0 min 0 min 0 W/m 6,3 km/h (2 Bft)
24.08.2015 05:18 16,4 C 15,0 C 97 % 15 lf 1003,3 hPa 0,0 l/m 0 min 0 min 0 W/m 6,3 km/h (2 Bft)
24.08.2015 05:20 16,4 C 15,0 C 97 % 15 lf 1003,3 hPa 0,0 l/m 0 min 0 min 0 W/m 4,2 km/h (1 Bft)
24.08.2015 05:22 16,4 C 15,0 C 97 % 15 lf 1003,4 hPa 0,0 l/m 0 min 0 min 0 W/m 8,4 km/h (2 Bft)
24.08.2015 05:24 16,4 C 15,0 C 97 % 15 lf 1003,3 hPa 0,0 l/m 0 min 0 min 0 W/m 10,5 km/h (2 Bft)
24.08.2015 05:26 16,4 C 15,0 C 97 % 15 lf 1003,3 hPa 0,0 l/m 0 min 0 min 0 W/m 8,4 km/h (2 Bft)
24.08.2015 05:28 16,4 C 15,0 C 97 % 15 lf 1003,3 hPa 0,0 l/m 0 min 0 min 0 W/m 8,4 km/h (2 Bft)
24.08.2015 05:30 16,4 C 15,0 C 97 % 15 lf 1003,4 hPa 0,0 l/m 0 min 0 min 0 W/m 8,4 km/h (2 Bft)
24.08.2015 05:32 16,4 C 15,0 C 97 % 15 lf 1003,4 hPa 0,0 l/m 0 min 0 min 0 W/m 8,4 km/h (2 Bft)
24.08.2015 05:34 16,4 C 15,0 C 97 % 15 lf 1003,4 hPa 0,0 l/m 0 min 0 min 0 W/m 12,6 km/h (3 Bft)
24.08.2015 05:36 16,4 C 15,0 C 97 % 15 lf 1003,3 hPa 0,0 l/m 0 min 0 min 0 W/m 6,3 km/h (2 Bft)
24.08.2015 05:38 16,4 C 15,0 C 97 % 15 lf 1003,3 hPa 0,0 l/m 0 min 0 min 0 W/m 8,4 km/h (2 Bft)
24.08.2015 05:40 16,4 C 15,0 C 97 % 15 lf 1003,4 hPa 0,0 l/m 0 min 0 min 0 W/m 4,2 km/h (1 Bft)
24.08.2015 05:42 16,4 C 15,0 C 97 % 15 lf 1003,3 hPa 0,0 l/m 0 min 0 min 0 W/m 6,3 km/h (2 Bft)
24.08.2015 05:44 16,4 C 15,0 C 97 % 15 lf 1003,2 hPa 0,0 l/m 0 min 0 min 0 W/m 4,2 km/h (1 Bft)
24.08.2015 05:46 16,4 C 15,0 C 97 % 15 lf 1003,2 hPa 0,0 l/m 0 min 0 min 0 W/m 2,1 km/h (1 Bft)
24.08.2015 05:48 16,4 C 14,4 C 97 % 15 lf 1003,3 hPa 0,0 l/m 0 min 0 min 0 W/m 4,2 km/h (1 Bft)
24.08.2015 05:50 16,4 C 14,4 C 97 % 15 lf 1003,2 hPa 0,0 l/m 0 min 0 min 0 W/m 6,3 km/h (2 Bft)
24.08.2015 05:52 16,4 C 14,4 C 97 % 15 lf 1003,3 hPa 0,0 l/m 0 min 0 min 0 W/m 6,3 km/h (2 Bft)
24.08.2015 05:54 16,3 C 14,4 C 97 % 15 lf 1003,2 hPa 0,0 l/m 0 min 0 min 0 W/m 2,1 km/h (1 Bft)
24.08.2015 05:56 16,3 C 14,4 C 97 % 15 lf 1003,2 hPa 0,0 l/m 0 min 0 min 0 W/m 2,1 km/h (1 Bft)
24.08.2015 05:58 16,3 C 14,4 C 97 % 15 lf 1003,2 hPa 0,0 l/m 0 min 0 min 0 W/m 4,2 km/h (1 Bft)
24.08.2015 06:00 16,3 C 14,4 C 97 % 15 lf 1003,2 hPa 0,0 l/m 0 min 0 min 0 W/m 4,2 km/h (1 Bft)
24.08.2015 06:02 16,3 C 14,4 C 97 % 15 lf 1003,2 hPa 0,0 l/m 0 min 0 min 0 W/m 4,2 km/h (1 Bft)
24.08.2015 06:05 16,2 C 14,4 C 97 % 15 lf 1003,2 hPa 0,0 l/m 0 min 0 min 0 W/m 8,4 km/h (2 Bft)
24.08.2015 06:08 16,2 C 14,4 C 97 % 15 lf 1003,1 hPa 0,0 l/m 0 min 0 min 0 W/m 8,4 km/h (2 Bft)
24.08.2015 06:10 16,2 C 14,4 C 97 % 15 lf 1003,1 hPa 0,0 l/m 0 min 0 min 0 W/m 6,3 km/h (2 Bft)
24.08.2015 06:12 16,1 C 14,4 C 97 % 15 lf 1003,2 hPa 0,0 l/m 0 min 0 min 0 W/m 6,3 km/h (2 Bft)
24.08.2015 06:14 16,1 C 14,4 C 97 % 15 lf 1003,3 hPa 0,0 l/m 0 min 0 min 0 W/m 6,3 km/h (2 Bft)
24.08.2015 06:16 16,1 C 14,4 C 97 % 15 lf 1003,3 hPa 0,0 l/m 0 min 0 min 0 W/m 6,3 km/h (2 Bft)
24.08.2015 06:18 16,0 C 13,9 C 97 % 15 lf 1003,3 hPa 0,0 l/m 0 min 0 min 0 W/m 8,4 km/h (2 Bft)
24.08.2015 06:20 16,0 C 14,4 C 97 % 15 lf 1003,4 hPa 0,0 l/m 0 min 0 min 0 W/m 6,3 km/h (2 Bft)
24.08.2015 06:22 15,9 C 13,9 C 97 % 15 lf 1003,3 hPa 0,0 l/m 0 min 0 min 0 W/m 6,3 km/h (2 Bft)
24.08.2015 06:24 15,9 C 13,9 C 97 % 15 lf 1003,3 hPa 0,0 l/m 0 min 0 min 0 W/m 6,3 km/h (2 Bft)
24.08.2015 06:26 15,9 C 13,9 C 97 % 15 lf 1003,3 hPa 0,0 l/m 0 min 0 min 0 W/m 6,3 km/h (2 Bft)
24.08.2015 06:28 15,9 C 13,9 C 97 % 15 lf 1003,2 hPa 0,0 l/m 0 min 0 min 2 W/m 6,3 km/h (2 Bft)
24.08.2015 06:30 15,9 C 14,4 C 97 % 15 lf 1003,3 hPa 0,0 l/m 0 min 0 min 5 W/m 10,5 km/h (2 Bft)
24.08.2015 06:32 15,9 C 13,9 C 97 % 15 lf 1003,1 hPa 0,0 l/m 0 min 0 min 5 W/m 6,3 km/h (2 Bft)
24.08.2015 06:34 15,8 C 14,4 C 97 % 15 lf 1003,1 hPa 0,0 l/m 0 min 0 min 6 W/m 6,3 km/h (2 Bft)
24.08.2015 06:36 15,8 C 14,4 C 97 % 15 lf 1003,0 hPa 0,0 l/m 0 min 0 min 7 W/m 6,3 km/h (2 Bft)
24.08.2015 06:38 15,8 C 14,4 C 97 % 15 lf 1003,1 hPa 0,0 l/m 0 min 0 min 7 W/m 4,2 km/h (1 Bft)
24.08.2015 06:40 15,8 C 14,4 C 97 % 15 lf 1003,0 hPa 0,0 l/m 0 min 0 min 7 W/m 6,3 km/h (2 Bft)
24.08.2015 06:42 15,8 C 14,4 C 97 % 15 lf 1003,1 hPa 0,0 l/m 0 min 0 min 9 W/m 8,4 km/h (2 Bft)
24.08.2015 06:44 15,8 C 14,4 C 97 % 15 lf 1003,0 hPa 0,0 l/m 0 min 0 min 11 W/m 6,3 km/h (2 Bft)
24.08.2015 06:46 15,8 C 14,4 C 97 % 15 lf 1003,0 hPa 0,0 l/m 0 min 0 min 12 W/m 6,3 km/h (2 Bft)
24.08.2015 06:48 15,8 C 14,4 C 97 % 15 lf 1003,0 hPa 0,0 l/m 0 min 0 min 14 W/m 4,2 km/h (1 Bft)
24.08.2015 06:50 15,8 C 14,4 C 97 % 15 lf 1003,1 hPa 0,0 l/m 0 min 0 min 17 W/m 6,3 km/h (2 Bft)
24.08.2015 06:52 15,8 C 14,4 C 97 % 15 lf 1003,0 hPa 0,0 l/m 0 min 0 min 18 W/m 6,3 km/h (2 Bft)
24.08.2015 06:54 15,8 C 13,9 C 97 % 15 lf 1003,0 hPa 0,0 l/m 0 min 0 min 18 W/m 6,3 km/h (2 Bft)
24.08.2015 06:56 15,8 C 14,4 C 97 % 15 lf 1003,0 hPa 0,0 l/m 0 min 0 min 18 W/m 6,3 km/h (2 Bft)
24.08.2015 06:58 15,8 C 13,9 C 97 % 15 lf 1003,0 hPa 0,0 l/m 0 min 0 min 19 W/m 6,3 km/h (2 Bft)
24.08.2015 07:00 15,8 C 13,9 C 97 % 15 lf 1003,0 hPa 0,0 l/m 0 min 0 min 19 W/m 8,4 km/h (2 Bft)
24.08.2015 07:02 15,7 C 13,9 C 97 % 15 lf 1003,1 hPa 0,0 l/m 0 min 0 min 21 W/m 6,3 km/h (2 Bft)
24.08.2015 07:04 15,7 C 13,9 C 97 % 15 lf 1003,1 hPa 0,0 l/m 0 min 0 min 21 W/m 6,3 km/h (2 Bft)
24.08.2015 07:06 15,7 C 14,4 C 97 % 15 lf 1003,1 hPa 0,0 l/m 0 min 0 min 23 W/m 6,3 km/h (2 Bft)
24.08.2015 07:08 15,7 C 14,4 C 97 % 15 lf 1003,1 hPa 0,0 l/m 0 min 0 min 28 W/m 6,3 km/h (2 Bft)
24.08.2015 07:10 15,7 C 14,4 C 97 % 15 lf 1003,1 hPa 0,0 l/m 0 min 0 min 34 W/m 4,2 km/h (1 Bft)
24.08.2015 07:12 15,7 C 14,4 C 97 % 15 lf 1003,1 hPa 0,0 l/m 0 min 0 min 37 W/m 4,2 km/h (1 Bft)
24.08.2015 07:14 15,7 C 14,4 C 97 % 15 lf 1003,1 hPa 0,0 l/m 0 min 0 min 42 W/m 6,3 km/h (2 Bft)
24.08.2015 07:16 15,7 C 14,4 C 97 % 15 lf 1003,1 hPa 0,0 l/m 2 min 0 min 51 W/m 4,2 km/h (1 Bft)
24.08.2015 07:18 15,7 C 14,4 C 97 % 15 lf 1003,2 hPa 0,0 l/m 2 min 0 min 71 W/m 4,2 km/h (1 Bft)
24.08.2015 07:20 15,7 C 14,4 C 97 % 15 lf 1003,2 hPa 0,0 l/m 2 min 0 min 98 W/m 4,2 km/h (1 Bft)
24.08.2015 07:22 15,8 C 14,4 C 97 % 15 lf 1003,3 hPa 0,0 l/m 2 min 0 min 110 W/m 6,3 km/h (2 Bft)
24.08.2015 07:24 15,8 C 14,4 C 97 % 15 lf 1003,1 hPa 0,0 l/m 2 min 0 min 114 W/m 6,3 km/h (2 Bft)
24.08.2015 07:26 15,8 C 15,0 C 97 % 15 lf 1003,1 hPa 0,0 l/m 2 min 0 min 116 W/m 6,3 km/h (2 Bft)
24.08.2015 07:28 15,8 C 15,0 C 98 % 15 lf 1003,1 hPa 0,0 l/m 2 min 0 min 121 W/m 6,3 km/h (2 Bft)
24.08.2015 07:30 15,8 C 15,0 C 98 % 15 lf 1003,1 hPa 0,0 l/m 2 min 0 min 127 W/m 6,3 km/h (2 Bft)
24.08.2015 07:32 15,8 C 15,0 C 98 % 15 lf 1003,0 hPa 0,0 l/m 2 min 0 min 125 W/m 6,3 km/h (2 Bft)
24.08.2015 07:34 15,9 C 15,0 C 98 % 15 lf 1002,9 hPa 0,0 l/m 2 min 0 min 102 W/m 8,4 km/h (2 Bft)
24.08.2015 07:36 15,9 C 15,0 C 98 % 15 lf 1002,9 hPa 0,0 l/m 2 min 0 min 127 W/m 6,3 km/h (2 Bft)
24.08.2015 07:38 15,9 C 15,0 C 98 % 15 lf 1003,0 hPa 0,0 l/m 2 min 0 min 128 W/m 8,4 km/h (2 Bft)
24.08.2015 07:40 15,9 C 15,0 C 98 % 15 lf 1003,1 hPa 0,0 l/m 2 min 0 min 120 W/m 12,6 km/h (3 Bft)
24.08.2015 07:42 16,0 C 15,0 C 98 % 15 lf 1003,0 hPa 0,0 l/m 2 min 0 min 120 W/m 8,4 km/h (2 Bft)
24.08.2015 07:44 16,0 C 15,0 C 98 % 15 lf 1002,9 hPa 0,0 l/m 2 min 0 min 87 W/m 6,3 km/h (2 Bft)
24.08.2015 07:46 16,0 C 15,0 C 98 % 15 lf 1002,9 hPa 0,0 l/m 0 min 0 min 81 W/m 6,3 km/h (2 Bft)
24.08.2015 07:48 16,1 C 15,0 C 98 % 15 lf 1002,8 hPa 0,0 l/m 2 min 0 min 102 W/m 6,3 km/h (2 Bft)
24.08.2015 07:50 16,1 C 15,0 C 98 % 15 lf 1002,8 hPa 0,0 l/m 2 min 0 min 103 W/m 6,3 km/h (2 Bft)
24.08.2015 07:52 16,1 C 15,0 C 98 % 15 lf 1002,8 hPa 0,0 l/m 2 min 0 min 101 W/m 8,4 km/h (2 Bft)
24.08.2015 07:54 16,1 C 15,0 C 98 % 15 lf 1002,8 hPa 0,0 l/m 2 min 0 min 149 W/m 6,3 km/h (2 Bft)
24.08.2015 07:56 16,1 C 15,0 C 98 % 15 lf 1002,8 hPa 0,0 l/m 2 min 0 min 166 W/m 6,3 km/h (2 Bft)
24.08.2015 07:58 16,1 C 15,0 C 98 % 15 lf 1002,7 hPa 0,0 l/m 0 min 0 min 99 W/m 8,4 km/h (2 Bft)
24.08.2015 08:00 16,2 C 15,0 C 98 % 15 lf 1002,7 hPa 0,0 l/m 0 min 0 min 90 W/m 6,3 km/h (2 Bft)
24.08.2015 08:02 16,2 C 15,0 C 98 % 15 lf 1002,8 hPa 0,0 l/m 0 min 0 min 90 W/m 6,3 km/h (2 Bft)
24.08.2015 08:04 16,2 C 15,0 C 98 % 15 lf 1002,8 hPa 0,0 l/m 0 min 0 min 98 W/m 8,4 km/h (2 Bft)
24.08.2015 08:06 16,2 C 15,0 C 98 % 15 lf 1002,8 hPa 0,0 l/m 2 min 0 min 136 W/m 6,3 km/h (2 Bft)
24.08.2015 08:08 16,2 C 15,0 C 98 % 15 lf 1002,8 hPa 0,0 l/m 2 min 0 min 190 W/m 6,3 km/h (2 Bft)
24.08.2015 08:10 16,2 C 15,0 C 98 % 15 lf 1002,8 hPa 0,0 l/m 2 min 0 min 183 W/m 8,4 km/h (2 Bft)
24.08.2015 08:12 16,3 C 15,0 C 98 % 15 lf 1002,8 hPa 0,0 l/m 2 min 0 min 129 W/m 8,4 km/h (2 Bft)
24.08.2015 08:14 16,3 C 15,0 C 98 % 15 lf 1002,8 hPa 0,0 l/m 2 min 0 min 169 W/m 6,3 km/h (2 Bft)
24.08.2015 08:16 16,3 C 15,6 C 98 % 15 lf 1002,7 hPa 0,0 l/m 2 min 0 min 168 W/m 6,3 km/h (2 Bft)
24.08.2015 08:18 16,3 C 15,6 C 98 % 15 lf 1002,7 hPa 0,0 l/m 2 min 0 min 145 W/m 6,3 km/h (2 Bft)
24.08.2015 08:20 16,3 C 15,6 C 98 % 15 lf 1002,7 hPa 0,0 l/m 0 min 0 min 96 W/m 6,3 km/h (2 Bft)
24.08.2015 08:22 16,4 C 15,6 C 98 % 15 lf 1002,7 hPa 0,0 l/m 0 min 0 min 104 W/m 4,2 km/h (1 Bft)
24.08.2015 08:24 16,4 C 15,6 C 98 % 15 lf 1002,7 hPa 0,0 l/m 0 min 0 min 133 W/m 8,4 km/h (2 Bft)
24.08.2015 08:26 16,4 C 15,6 C 98 % 15 lf 1002,7 hPa 0,0 l/m 2 min 0 min 177 W/m 8,4 km/h (2 Bft)
24.08.2015 08:28 16,4 C 15,6 C 98 % 15 lf 1002,7 hPa 0,0 l/m 2 min 0 min 169 W/m 6,3 km/h (2 Bft)
24.08.2015 08:30 16,5 C 15,6 C 98 % 15 lf 1002,7 hPa 0,0 l/m 0 min 0 min 104 W/m 6,3 km/h (2 Bft)
24.08.2015 08:32 16,5 C 15,6 C 98 % 15 lf 1002,7 hPa 0,0 l/m 2 min 0 min 162 W/m 8,4 km/h (2 Bft)
24.08.2015 08:34 16,6 C 15,6 C 98 % 15 lf 1002,7 hPa 0,0 l/m 2 min 0 min 261 W/m 4,2 km/h (1 Bft)
24.08.2015 08:36 16,6 C 15,6 C 98 % 15 lf 1002,7 hPa 0,0 l/m 2 min 0 min 266 W/m 6,3 km/h (2 Bft)
24.08.2015 08:38 16,7 C 15,6 C 98 % 15 lf 1002,8 hPa 0,0 l/m 2 min 0 min 246 W/m 8,4 km/h (2 Bft)
24.08.2015 08:40 16,7 C 15,6 C 98 % 15 lf 1002,8 hPa 0,0 l/m 2 min 0 min 161 W/m 8,4 km/h (2 Bft)
24.08.2015 08:42 16,7 C 15,6 C 98 % 15 lf 1002,8 hPa 0,0 l/m 0 min 0 min 142 W/m 12,6 km/h (3 Bft)
24.08.2015 08:44 16,8 C 15,6 C 98 % 15 lf 1002,8 hPa 0,0 l/m 2 min 0 min 167 W/m 10,5 km/h (2 Bft)
24.08.2015 08:46 16,8 C 15,6 C 98 % 15 lf 1002,8 hPa 0,0 l/m 2 min 0 min 167 W/m 12,6 km/h (3 Bft)
24.08.2015 08:48 16,8 C 16,1 C 98 % 15 lf 1002,8 hPa 0,0 l/m 2 min 0 min 252 W/m 14,6 km/h (3 Bft)
24.08.2015 08:50 16,9 C 16,1 C 98 % 15 lf 1002,8 hPa 0,0 l/m 2 min 0 min 264 W/m 10,5 km/h (2 Bft)
24.08.2015 08:52 16,9 C 16,1 C 98 % 15 lf 1002,8 hPa 0,0 l/m 2 min 0 min 294 W/m 8,4 km/h (2 Bft)
24.08.2015 08:54 16,9 C 16,1 C 98 % 15 lf 1002,8 hPa 0,0 l/m 2 min 0 min 247 W/m 8,4 km/h (2 Bft)
24.08.2015 08:56 17,0 C 16,1 C 98 % 15 lf 1002,8 hPa 0,0 l/m 2 min 0 min 256 W/m 10,5 km/h (2 Bft)
24.08.2015 08:58 17,1 C 16,1 C 98 % 15 lf 1002,8 hPa 0,0 l/m 2 min 0 min 228 W/m 12,6 km/h (3 Bft)
24.08.2015 09:00 17,1 C 16,1 C 99 % 15 lf 1002,8 hPa 0,0 l/m 2 min 0 min 238 W/m 10,5 km/h (2 Bft)
24.08.2015 09:02 17,1 C 16,1 C 99 % 15 lf 1002,8 hPa 0,0 l/m 2 min 0 min 198 W/m 10,5 km/h (2 Bft)
24.08.2015 09:04 17,2 C 16,1 C 99 % 15 lf 1002,7 hPa 0,0 l/m 2 min 0 min 185 W/m 10,5 km/h (2 Bft)
24.08.2015 09:06 17,2 C 16,1 C 99 % 15 lf 1002,8 hPa 0,0 l/m 2 min 0 min 302 W/m 10,5 km/h (2 Bft)
24.08.2015 09:08 17,2 C 16,1 C 99 % 15 lf 1002,7 hPa 0,0 l/m 2 min 0 min 428 W/m 10,5 km/h (2 Bft)
24.08.2015 09:10 17,3 C 16,1 C 99 % 15 lf 1002,8 hPa 0,0 l/m 2 min 0 min 438 W/m 12,6 km/h (3 Bft)
24.08.2015 09:12 17,3 C 16,1 C 99 % 15 lf 1002,7 hPa 0,0 l/m 2 min 0 min 332 W/m 16,7 km/h (3 Bft)
24.08.2015 09:14 17,3 C 16,1 C 98 % 15 lf 1002,7 hPa 0,0 l/m 0 min 0 min 126 W/m 18,8 km/h (3 Bft)
24.08.2015 09:16 17,3 C 16,1 C 98 % 15 lf 1002,7 hPa 0,0 l/m 0 min 0 min 106 W/m 14,6 km/h (3 Bft)
24.08.2015 09:18 17,2 C 15,6 C 99 % 15 lf 1002,7 hPa 0,0 l/m 0 min 0 min 112 W/m 16,7 km/h (3 Bft)
24.08.2015 09:20 17,2 C 15,6 C 99 % 15 lf 1002,7 hPa 0,0 l/m 2 min 0 min 229 W/m 18,8 km/h (3 Bft)
24.08.2015 09:22 17,2 C 15,6 C 99 % 15 lf 1002,7 hPa 0,0 l/m 2 min 0 min 376 W/m 12,6 km/h (3 Bft)
24.08.2015 09:24 17,2 C 15,6 C 99 % 15 lf 1002,6 hPa 0,0 l/m 2 min 0 min 414 W/m 10,5 km/h (2 Bft)
24.08.2015 09:26 17,2 C 15,6 C 99 % 15 lf 1002,6 hPa 0,0 l/m 2 min 0 min 414 W/m 12,6 km/h (3 Bft)
24.08.2015 09:28 17,3 C 15,6 C 99 % 13 lf 1002,5 hPa 0,0 l/m 2 min 0 min 420 W/m 14,6 km/h (3 Bft)
24.08.2015 09:30 17,3 C 16,1 C 98 % 11 lf 1002,6 hPa 0,0 l/m 2 min 0 min 330 W/m 10,5 km/h (2 Bft)
24.08.2015 09:32 17,3 C 16,1 C 98 % 4 lf 1002,5 hPa 0,0 l/m 2 min 0 min 284 W/m 12,6 km/h (3 Bft)
24.08.2015 09:34 17,4 C 16,1 C 98 % 1 lf 1002,6 hPa 0,0 l/m 2 min 0 min 298 W/m 16,7 km/h (3 Bft)
24.08.2015 09:36 17,4 C 16,1 C 98 % 0 lf 1002,6 hPa 0,0 l/m 2 min 0 min 421 W/m 14,6 km/h (3 Bft)
24.08.2015 09:38 17,4 C 16,1 C 99 % 0 lf 1002,6 hPa 0,0 l/m 0 min 0 min 163 W/m 16,7 km/h (3 Bft)
24.08.2015 09:40 17,5 C 16,1 C 99 % 0 lf 1002,6 hPa 0,0 l/m 2 min 0 min 374 W/m 12,6 km/h (3 Bft)
24.08.2015 09:42 17,6 C 16,1 C 99 % 0 lf 1002,5 hPa 0,0 l/m 2 min 0 min 469 W/m 12,6 km/h (3 Bft)
24.08.2015 09:44 17,6 C 16,7 C 99 % 0 lf 1002,6 hPa 0,0 l/m 2 min 0 min 479 W/m 14,6 km/h (3 Bft)
24.08.2015 09:46 17,8 C 17,8 C 98 % 0 lf 1002,6 hPa 0,0 l/m 2 min 0 min 491 W/m 16,7 km/h (3 Bft)
24.08.2015 09:48 17,8 C 18,9 C 98 % 0 lf 1002,7 hPa 0,0 l/m 2 min 0 min 506 W/m 20,9 km/h (4 Bft)
24.08.2015 09:50 17,9 C 20,0 C 99 % 0 lf 1002,7 hPa 0,0 l/m 2 min 0 min 525 W/m 16,7 km/h (3 Bft)
24.08.2015 09:52 18,1 C 20,0 C 98 % 0 lf 1002,7 hPa 0,0 l/m 2 min 0 min 554 W/m 16,7 km/h (3 Bft)
24.08.2015 09:54 18,1 C 20,0 C 98 % 0 lf 1002,6 hPa 0,0 l/m 2 min 0 min 593 W/m 16,7 km/h (3 Bft)
24.08.2015 09:56 18,3 C 20,6 C 98 % 0 lf 1002,6 hPa 0,0 l/m 2 min 0 min 607 W/m 16,7 km/h (3 Bft)
24.08.2015 09:58 18,4 C 21,1 C 98 % 0 lf 1002,6 hPa 0,0 l/m 2 min 0 min 614 W/m 20,9 km/h (4 Bft)
24.08.2015 10:00 18,5 C 21,1 C 98 % 0 lf 1002,5 hPa 0,0 l/m 2 min 0 min 665 W/m 23,0 km/h (4 Bft)
24.08.2015 10:02 18,6 C 21,7 C 98 % 0 lf 1002,5 hPa 0,0 l/m 2 min 0 min 697 W/m 27,2 km/h (4 Bft)
24.08.2015 10:04 18,7 C 21,7 C 98 % 0 lf 1002,5 hPa 0,0 l/m 2 min 0 min 720 W/m 25,1 km/h (4 Bft)
24.08.2015 10:06 18,8 C 22,2 C 97 % 0 lf 1002,5 hPa 0,0 l/m 2 min 0 min 727 W/m 23,0 km/h (4 Bft)
24.08.2015 10:08 19,0 C 23,9 C 97 % 0 lf 1002,6 hPa 0,0 l/m 2 min 0 min 728 W/m 14,6 km/h (3 Bft)
24.08.2015 10:10 19,2 C 24,4 C 96 % 0 lf 1002,5 hPa 0,0 l/m 2 min 0 min 725 W/m 18,8 km/h (3 Bft)
24.08.2015 10:12 19,3 C 24,4 C 94 % 0 lf 1002,5 hPa 0,0 l/m 2 min 0 min 662 W/m 23,0 km/h (4 Bft)
24.08.2015 10:14 19,4 C 23,9 C 93 % 0 lf 1002,5 hPa 0,0 l/m 2 min 0 min 620 W/m 29,3 km/h (5 Bft)
24.08.2015 10:16 19,6 C 24,4 C 92 % 0 lf 1002,5 hPa 0,0 l/m 2 min 0 min 367 W/m 14,6 km/h (3 Bft)
24.08.2015 10:18 19,8 C 25,0 C 91 % 0 lf 1002,5 hPa 0,0 l/m 2 min 0 min 682 W/m 16,7 km/h (3 Bft)
24.08.2015 10:20 19,9 C 24,4 C 90 % 0 lf 1002,5 hPa 0,0 l/m 2 min 0 min 689 W/m 16,7 km/h (3 Bft)
24.08.2015 10:22 20,1 C 23,3 C 89 % 0 lf 1002,5 hPa 0,0 l/m 2 min 0 min 551 W/m 20,9 km/h (4 Bft)
24.08.2015 10:24 20,1 C 22,2 C 87 % 0 lf 1002,5 hPa 0,0 l/m 0 min 0 min 267 W/m 16,7 km/h (3 Bft)
24.08.2015 10:26 20,2 C 21,7 C 86 % 0 lf 1002,5 hPa 0,0 l/m 2 min 0 min 303 W/m 20,9 km/h (4 Bft)
24.08.2015 10:28 20,3 C 21,1 C 86 % 0 lf 1002,5 hPa 0,0 l/m 2 min 0 min 335 W/m 20,9 km/h (4 Bft)
24.08.2015 10:30 20,3 C 21,1 C 85 % 0 lf 1002,4 hPa 0,0 l/m 2 min 0 min 338 W/m 23,0 km/h (4 Bft)
24.08.2015 10:32 20,3 C 21,7 C 84 % 0 lf 1002,4 hPa 0,0 l/m 2 min 0 min 353 W/m 16,7 km/h (3 Bft)
24.08.2015 10:34 20,3 C 21,7 C 84 % 0 lf 1002,4 hPa 0,0 l/m 2 min 0 min 359 W/m 14,6 km/h (3 Bft)
24.08.2015 10:36 20,4 C 21,7 C 84 % 0 lf 1002,5 hPa 0,0 l/m 0 min 0 min 276 W/m 10,5 km/h (2 Bft)
24.08.2015 10:38 20,4 C 22,8 C 84 % 0 lf 1002,4 hPa 0,0 l/m 2 min 0 min 426 W/m 20,9 km/h (4 Bft)
24.08.2015 10:40 20,4 C 23,3 C 84 % 0 lf 1002,5 hPa 0,0 l/m 2 min 0 min 503 W/m 20,9 km/h (4 Bft)
24.08.2015 10:42 20,5 C 23,9 C 84 % 0 lf 1002,5 hPa 0,0 l/m 2 min 0 min 612 W/m 23,0 km/h (4 Bft)
24.08.2015 10:44 20,6 C 23,3 C 83 % 0 lf 1002,5 hPa 0,0 l/m 2 min 0 min 705 W/m 18,8 km/h (3 Bft)
24.08.2015 10:46 20,6 C 24,4 C 83 % 0 lf 1002,5 hPa 0,0 l/m 2 min 0 min 695 W/m 25,1 km/h (4 Bft)
24.08.2015 10:48 20,7 C 24,4 C 83 % 0 lf 1002,5 hPa 0,0 l/m 2 min 0 min 763 W/m 25,1 km/h (4 Bft)
24.08.2015 10:50 20,8 C 24,4 C 83 % 0 lf 1002,5 hPa 0,0 l/m 2 min 0 min 687 W/m 23,0 km/h (4 Bft)
24.08.2015 10:52 20,9 C 24,4 C 83 % 0 lf 1002,5 hPa 0,0 l/m 2 min 0 min 674 W/m 23,0 km/h (4 Bft)
24.08.2015 10:54 20,9 C 23,3 C 82 % 0 lf 1002,5 hPa 0,0 l/m 2 min 0 min 759 W/m 27,2 km/h (4 Bft)
24.08.2015 10:56 20,9 C 21,7 C 81 % 0 lf 1002,5 hPa 0,0 l/m 0 min 0 min 229 W/m 29,3 km/h (5 Bft)
24.08.2015 10:58 20,9 C 20,6 C 81 % 0 lf 1002,5 hPa 0,0 l/m 0 min 0 min 199 W/m 25,1 km/h (4 Bft)
24.08.2015 11:00 20,9 C 20,6 C 81 % 0 lf 1002,4 hPa 0,0 l/m 0 min 0 min 159 W/m 23,0 km/h (4 Bft)
24.08.2015 11:02 20,8 C 19,4 C 81 % 0 lf 1002,4 hPa 0,0 l/m 0 min 0 min 121 W/m 23,0 km/h (4 Bft)
24.08.2015 11:04 20,7 C 19,4 C 81 % 0 lf 1002,4 hPa 0,0 l/m 0 min 0 min 106 W/m 18,8 km/h (3 Bft)
24.08.2015 11:06 20,7 C 18,9 C 81 % 0 lf 1002,4 hPa 0,0 l/m 0 min 0 min 101 W/m 18,8 km/h (3 Bft)
24.08.2015 11:08 20,6 C 18,9 C 81 % 0 lf 1002,4 hPa 0,0 l/m 0 min 0 min 117 W/m 12,6 km/h (3 Bft)
24.08.2015 11:10 20,5 C 18,9 C 81 % 0 lf 1002,4 hPa 0,0 l/m 0 min 2 min 140 W/m 23,0 km/h (4 Bft)
24.08.2015 11:12 20,4 C 18,3 C 82 % 0 lf 1002,4 hPa 0,0 l/m 0 min 2 min 160 W/m 23,0 km/h (4 Bft)
24.08.2015 11:14 20,3 C 17,8 C 82 % 0 lf 1002,4 hPa 0,0 l/m 0 min 2 min 171 W/m 18,8 km/h (3 Bft)
24.08.2015 11:16 20,2 C 17,8 C 83 % 1 lf 1002,3 hPa 0,0 l/m 0 min 2 min 199 W/m 25,1 km/h (4 Bft)
24.08.2015 11:18 20,2 C 17,8 C 83 % 0 lf 1002,2 hPa 0,0 l/m 0 min 2 min 249 W/m 18,8 km/h (3 Bft)
24.08.2015 11:20 20,1 C 18,3 C 84 % 0 lf 1002,1 hPa 0,0 l/m 0 min 2 min 291 W/m 16,7 km/h (3 Bft)
24.08.2015 11:22 20,1 C 18,9 C 84 % 0 lf 1002,1 hPa 0,0 l/m 2 min 2 min 361 W/m 16,7 km/h (3 Bft)
24.08.2015 11:24 20,1 C 20,6 C 85 % 1 lf 1002,1 hPa 0,0 l/m 2 min 2 min 425 W/m 18,8 km/h (3 Bft)
24.08.2015 11:26 20,1 C 20,6 C 86 % 0 lf 1002,0 hPa 0,0 l/m 2 min 2 min 389 W/m 25,1 km/h (4 Bft)
24.08.2015 11:28 20,2 C 20,6 C 86 % 0 lf 1002,0 hPa 0,0 l/m 0 min 0 min 248 W/m 20,9 km/h (4 Bft)
24.08.2015 11:30 20,1 C 20,0 C 85 % 0 lf 1002,2 hPa 0,0 l/m 0 min 0 min 215 W/m 16,7 km/h (3 Bft)
24.08.2015 11:32 20,1 C 19,4 C 85 % 0 lf 1002,2 hPa 0,0 l/m 0 min 2 min 237 W/m 18,8 km/h (3 Bft)
24.08.2015 11:34 20,1 C 19,4 C 84 % 1 lf 1002,3 hPa 0,0 l/m 0 min 2 min 312 W/m 23,0 km/h (4 Bft)
24.08.2015 11:36 20,1 C 19,4 C 85 % 0 lf 1002,2 hPa 0,0 l/m 2 min 2 min 498 W/m 18,8 km/h (3 Bft)
24.08.2015 11:38 20,1 C 20,0 C 85 % 1 lf 1002,2 hPa 0,0 l/m 2 min 2 min 437 W/m 10,5 km/h (2 Bft)
24.08.2015 11:40 20,2 C 20,0 C 86 % 0 lf 1002,1 hPa 0,0 l/m 2 min 2 min 397 W/m 18,8 km/h (3 Bft)
24.08.2015 11:42 20,3 C 20,0 C 87 % 0 lf 1002,1 hPa 0,0 l/m 2 min 2 min 401 W/m 20,9 km/h (4 Bft)
24.08.2015 11:44 20,4 C 20,0 C 88 % 0 lf 1002,1 hPa 0,0 l/m 2 min 2 min 418 W/m 16,7 km/h (3 Bft)
24.08.2015 11:46 20,4 C 20,0 C 87 % 0 lf 1002,1 hPa 0,0 l/m 2 min 2 min 416 W/m 18,8 km/h (3 Bft)
24.08.2015 11:48 20,5 C 20,6 C 87 % 0 lf 1002,0 hPa 0,0 l/m 2 min 2 min 377 W/m 14,6 km/h (3 Bft)
24.08.2015 11:50 20,6 C 20,6 C 86 % 0 lf 1001,9 hPa 0,0 l/m 2 min 0 min 347 W/m 18,8 km/h (3 Bft)
24.08.2015 11:52 20,6 C 21,1 C 86 % 0 lf 1001,9 hPa 0,0 l/m 2 min 0 min 348 W/m 12,6 km/h (3 Bft)
24.08.2015 11:54 20,6 C 21,1 C 85 % 0 lf 1001,9 hPa 0,0 l/m 2 min 0 min 362 W/m 20,9 km/h (4 Bft)
24.08.2015 11:56 20,7 C 21,1 C 85 % 0 lf 1001,9 hPa 0,0 l/m 2 min 0 min 345 W/m 20,9 km/h (4 Bft)
24.08.2015 11:58 20,7 C 20,6 C 84 % 0 lf 1001,9 hPa 0,0 l/m 0 min 0 min 308 W/m 18,8 km/h (3 Bft)
24.08.2015 12:00 20,7 C 20,6 C 83 % 0 lf 1001,9 hPa 0,0 l/m 0 min 0 min 293 W/m 20,9 km/h (4 Bft)
24.08.2015 12:02 20,7 C 20,6 C 82 % 0 lf 1001,8 hPa 0,0 l/m 0 min 0 min 282 W/m 23,0 km/h (4 Bft)
24.08.2015 12:05 20,7 C 20,6 C 81 % 0 lf 1001,8 hPa 0,0 l/m 0 min 0 min 329 W/m 20,9 km/h (4 Bft)
24.08.2015 12:08 20,7 C 21,1 C 81 % 0 lf 1001,7 hPa 0,0 l/m 0 min 0 min 337 W/m 20,9 km/h (4 Bft)
24.08.2015 12:10 20,8 C 21,1 C 81 % 0 lf 1001,6 hPa 0,0 l/m 2 min 0 min 393 W/m 18,8 km/h (3 Bft)
24.08.2015 12:12 20,8 C 21,1 C 81 % 0 lf 1001,7 hPa 0,0 l/m 2 min 0 min 402 W/m 23,0 km/h (4 Bft)
24.08.2015 12:14 20,9 C 21,1 C 82 % 0 lf 1001,7 hPa 0,0 l/m 2 min 0 min 413 W/m 18,8 km/h (3 Bft)
24.08.2015 12:16 20,9 C 21,7 C 81 % 0 lf 1001,7 hPa 0,0 l/m 2 min 0 min 419 W/m 25,1 km/h (4 Bft)
24.08.2015 12:18 21,0 C 21,7 C 80 % 0 lf 1001,7 hPa 0,0 l/m 2 min 0 min 417 W/m 23,0 km/h (4 Bft)
24.08.2015 12:20 21,0 C 21,7 C 80 % 0 lf 1001,7 hPa 0,0 l/m 2 min 0 min 385 W/m 18,8 km/h (3 Bft)
24.08.2015 12:22 21,1 C 21,7 C 80 % 0 lf 1001,7 hPa 0,0 l/m 2 min 0 min 380 W/m 20,9 km/h (4 Bft)
24.08.2015 12:24 21,1 C 21,1 C 80 % 0 lf 1001,6 hPa 0,0 l/m 0 min 0 min 336 W/m 23,0 km/h (4 Bft)
24.08.2015 12:26 21,2 C 21,1 C 80 % 0 lf 1001,6 hPa 0,0 l/m 0 min 0 min 311 W/m 18,8 km/h (3 Bft)
24.08.2015 12:28 21,2 C 21,1 C 80 % 0 lf 1001,5 hPa 0,0 l/m 0 min 0 min 298 W/m 23,0 km/h (4 Bft)
24.08.2015 12:30 21,3 C 21,1 C 80 % 0 lf 1001,6 hPa 0,0 l/m 0 min 0 min 292 W/m 14,6 km/h (3 Bft)
24.08.2015 12:32 21,3 C 21,1 C 80 % 0 lf 1001,6 hPa 0,0 l/m 0 min 0 min 270 W/m 18,8 km/h (3 Bft)
24.08.2015 12:34 21,3 C 21,1 C 80 % 0 lf 1001,5 hPa 0,0 l/m 0 min 0 min 257 W/m 18,8 km/h (3 Bft)
24.08.2015 12:36 21,3 C 20,6 C 79 % 0 lf 1001,5 hPa 0,0 l/m 0 min 0 min 251 W/m 25,1 km/h (4 Bft)
24.08.2015 12:38 21,3 C 20,6 C 79 % 0 lf 1001,4 hPa 0,0 l/m 0 min 0 min 236 W/m 16,7 km/h (3 Bft)
24.08.2015 12:40 21,3 C 20,6 C 80 % 0 lf 1001,4 hPa 0,0 l/m 0 min 0 min 219 W/m 12,6 km/h (3 Bft)
24.08.2015 12:42 21,3 C 20,6 C 80 % 0 lf 1001,4 hPa 0,0 l/m 0 min 0 min 216 W/m 14,6 km/h (3 Bft)
24.08.2015 12:44 21,3 C 20,6 C 80 % 0 lf 1001,3 hPa 0,0 l/m 0 min 0 min 210 W/m 18,8 km/h (3 Bft)
24.08.2015 12:46 21,3 C 20,6 C 80 % 0 lf 1001,3 hPa 0,0 l/m 0 min 0 min 210 W/m 18,8 km/h (3 Bft)
24.08.2015 12:48 21,3 C 20,6 C 80 % 0 lf 1001,3 hPa 0,0 l/m 0 min 0 min 204 W/m 18,8 km/h (3 Bft)
24.08.2015 12:50 21,3 C 20,6 C 80 % 0 lf 1001,3 hPa 0,0 l/m 0 min 0 min 201 W/m 18,8 km/h (3 Bft)
24.08.2015 12:52 21,3 C 20,6 C 80 % 0 lf 1001,3 hPa 0,0 l/m 0 min 0 min 224 W/m 18,8 km/h (3 Bft)
24.08.2015 12:54 21,3 C 20,6 C 79 % 0 lf 1001,3 hPa 0,0 l/m 0 min 0 min 231 W/m 23,0 km/h (4 Bft)
24.08.2015 12:56 21,3 C 20,6 C 79 % 0 lf 1001,3 hPa 0,0 l/m 0 min 2 min 212 W/m 27,2 km/h (4 Bft)
24.08.2015 12:58 21,3 C 20,0 C 80 % 1 lf 1001,3 hPa 0,0 l/m 0 min 2 min 166 W/m 18,8 km/h (3 Bft)
24.08.2015 13:00 21,3 C 18,3 C 80 % 1 lf 1001,4 hPa 0,0 l/m 0 min 2 min 123 W/m 18,8 km/h (3 Bft)
24.08.2015 13:02 21,2 C 17,8 C 81 % 0 lf 1001,4 hPa 0,0 l/m 0 min 2 min 102 W/m 25,1 km/h (4 Bft)
24.08.2015 13:04 21,2 C 17,2 C 81 % 1 lf 1001,4 hPa 0,0 l/m 0 min 2 min 80 W/m 18,8 km/h (3 Bft)
24.08.2015 13:06 21,1 C 17,2 C 82 % 3 lf 1001,3 hPa 0,0 l/m 0 min 2 min 62 W/m 27,2 km/h (4 Bft)
24.08.2015 13:08 21,0 C 17,2 C 82 % 1 lf 1001,4 hPa 0,0 l/m 0 min 2 min 51 W/m 20,9 km/h (4 Bft)
24.08.2015 13:10 20,9 C 17,2 C 83 % 4 lf 1001,3 hPa 0,0 l/m 0 min 2 min 47 W/m 12,6 km/h (3 Bft)
24.08.2015 13:12 20,9 C 17,2 C 83 % 4 lf 1001,3 hPa 0,0 l/m 0 min 2 min 47 W/m 6,3 km/h (2 Bft)
24.08.2015 13:14 20,8 C 17,2 C 83 % 2 lf 1001,2 hPa 0,0 l/m 0 min 2 min 43 W/m 10,5 km/h (2 Bft)
24.08.2015 13:16 20,8 C 17,2 C 84 % 0 lf 1001,2 hPa 0,2 l/m 0 min 2 min 77 W/m 8,4 km/h (2 Bft)
24.08.2015 13:18 20,7 C 17,2 C 84 % 1 lf 1001,1 hPa 0,0 l/m 0 min 0 min 139 W/m 20,9 km/h (4 Bft)
24.08.2015 13:20 20,7 C 17,2 C 85 % 0 lf 1001,0 hPa 0,0 l/m 0 min 0 min 168 W/m 14,6 km/h (3 Bft)
24.08.2015 13:22 20,7 C 17,8 C 85 % 0 lf 1000,9 hPa 0,0 l/m 0 min 0 min 185 W/m 14,6 km/h (3 Bft)
24.08.2015 13:24 20,6 C 17,8 C 85 % 0 lf 1000,8 hPa 0,0 l/m 0 min 0 min 241 W/m 16,7 km/h (3 Bft)
24.08.2015 13:26 20,6 C 18,3 C 86 % 0 lf 1000,7 hPa 0,0 l/m 0 min 0 min 266 W/m 14,6 km/h (3 Bft)
24.08.2015 13:28 20,6 C 18,3 C 86 % 0 lf 1000,6 hPa 0,0 l/m 0 min 0 min 312 W/m 14,6 km/h (3 Bft)
24.08.2015 13:30 20,6 C 18,9 C 87 % 0 lf 1000,4 hPa 0,0 l/m 2 min 0 min 434 W/m 20,9 km/h (4 Bft)
24.08.2015 13:32 20,7 C 19,4 C 87 % 0 lf 1000,4 hPa 0,0 l/m 2 min 0 min 601 W/m 16,7 km/h (3 Bft)
24.08.2015 13:34 20,8 C 19,4 C 88 % 0 lf 1000,3 hPa 0,0 l/m 2 min 0 min 685 W/m 16,7 km/h (3 Bft)
24.08.2015 13:36 20,9 C 20,0 C 88 % 0 lf 1000,3 hPa 0,0 l/m 2 min 0 min 906 W/m 20,9 km/h (4 Bft)
24.08.2015 13:38 21,0 C 20,0 C 87 % 0 lf 1000,2 hPa 0,0 l/m 2 min 0 min 905 W/m 27,2 km/h (4 Bft)
24.08.2015 13:40 21,1 C 20,0 C 86 % 0 lf 1000,2 hPa 0,0 l/m 2 min 0 min 997 W/m 23,0 km/h (4 Bft)
24.08.2015 13:42 21,2 C 20,6 C 86 % 0 lf 1000,1 hPa 0,0 l/m 2 min 0 min 1035 W/m 25,1 km/h (4 Bft)
24.08.2015 13:44 21,4 C 21,1 C 85 % 0 lf 1000,1 hPa 0,0 l/m 2 min 0 min 1007 W/m 29,3 km/h (5 Bft)
24.08.2015 13:46 21,6 C 21,7 C 84 % 0 lf 1000,1 hPa 0,0 l/m 2 min 0 min 891 W/m 23,0 km/h (4 Bft)
24.08.2015 13:48 21,7 C 22,2 C 84 % 0 lf 1000,1 hPa 0,0 l/m 2 min 0 min 894 W/m 20,9 km/h (4 Bft)
24.08.2015 13:50 21,9 C 22,2 C 84 % 0 lf 1000,0 hPa 0,0 l/m 2 min 0 min 807 W/m 29,3 km/h (5 Bft)
24.08.2015 13:52 22,1 C 22,2 C 82 % 0 lf 999,8 hPa 0,0 l/m 2 min 0 min 821 W/m 31,4 km/h (5 Bft)
24.08.2015 13:54 22,3 C 22,2 C 81 % 0 lf 999,7 hPa 0,0 l/m 2 min 0 min 822 W/m 25,1 km/h (4 Bft)
24.08.2015 13:56 22,4 C 22,2 C 80 % 0 lf 999,7 hPa 0,0 l/m 2 min 0 min 770 W/m 29,3 km/h (5 Bft)
24.08.2015 13:58 22,6 C 21,7 C 79 % 0 lf 999,7 hPa 0,0 l/m 0 min 0 min 327 W/m 16,7 km/h (3 Bft)
24.08.2015 14:00 22,7 C 22,2 C 79 % 0 lf 999,6 hPa 0,0 l/m 2 min 0 min 407 W/m 25,1 km/h (4 Bft)
24.08.2015 14:02 22,7 C 22,8 C 79 % 0 lf 999,5 hPa 0,0 l/m 2 min 0 min 448 W/m 25,1 km/h (4 Bft)
24.08.2015 14:04 22,8 C 22,8 C 79 % 0 lf 999,6 hPa 0,0 l/m 2 min 0 min 469 W/m 29,3 km/h (5 Bft)
24.08.2015 14:06 22,8 C 23,3 C 79 % 0 lf 999,8 hPa 0,0 l/m 2 min 0 min 613 W/m 18,8 km/h (3 Bft)
24.08.2015 14:08 22,9 C 23,3 C 79 % 0 lf 999,9 hPa 0,0 l/m 2 min 0 min 944 W/m 33,5 km/h (5 Bft)
24.08.2015 14:10 23,1 C 23,3 C 79 % 0 lf 999,9 hPa 0,0 l/m 2 min 0 min 944 W/m 33,5 km/h (5 Bft)
24.08.2015 14:12 23,2 C 23,3 C 79 % 0 lf 999,9 hPa 0,0 l/m 2 min 0 min 693 W/m 29,3 km/h (5 Bft)
24.08.2015 14:14 23,3 C 22,8 C 78 % 0 lf 999,9 hPa 0,0 l/m 0 min 0 min 284 W/m 27,2 km/h (4 Bft)
24.08.2015 14:16 23,3 C 22,8 C 77 % 0 lf 999,6 hPa 0,0 l/m 0 min 0 min 184 W/m 27,2 km/h (4 Bft)
24.08.2015 14:18 23,3 C 22,2 C 77 % 0 lf 999,6 hPa 0,0 l/m 0 min 0 min 150 W/m 29,3 km/h (5 Bft)
24.08.2015 14:20 23,3 C 21,7 C 77 % 0 lf 999,7 hPa 0,0 l/m 0 min 0 min 142 W/m 16,7 km/h (3 Bft)
24.08.2015 14:22 23,3 C 21,7 C 77 % 0 lf 999,5 hPa 0,0 l/m 0 min 0 min 98 W/m 10,5 km/h (2 Bft)
24.08.2015 14:24 23,3 C 21,7 C 77 % 0 lf 999,5 hPa 0,0 l/m 0 min 0 min 124 W/m 27,2 km/h (4 Bft)
24.08.2015 14:26 23,2 C 21,7 C 77 % 0 lf 999,5 hPa 0,0 l/m 0 min 0 min 126 W/m 14,6 km/h (3 Bft)
24.08.2015 14:28 23,2 C 21,1 C 77 % 0 lf 999,4 hPa 0,0 l/m 0 min 0 min 88 W/m 20,9 km/h (4 Bft)
24.08.2015 14:30 23,2 C 21,1 C 77 % 0 lf 999,4 hPa 0,0 l/m 0 min 0 min 91 W/m 18,8 km/h (3 Bft)
24.08.2015 14:32 23,1 C 21,1 C 76 % 0 lf 999,4 hPa 0,0 l/m 0 min 0 min 115 W/m 25,1 km/h (4 Bft)
24.08.2015 14:34 23,0 C 21,1 C 76 % 0 lf 999,3 hPa 0,0 l/m 0 min 0 min 144 W/m 18,8 km/h (3 Bft)
24.08.2015 14:36 23,0 C 21,7 C 77 % 0 lf 999,3 hPa 0,0 l/m 0 min 0 min 180 W/m 25,1 km/h (4 Bft)
24.08.2015 14:38 22,9 C 21,7 C 76 % 0 lf 999,3 hPa 0,0 l/m 0 min 0 min 199 W/m 27,2 km/h (4 Bft)
24.08.2015 14:40 22,9 C 21,7 C 75 % 0 lf 999,4 hPa 0,0 l/m 0 min 0 min 192 W/m 18,8 km/h (3 Bft)
24.08.2015 14:42 22,8 C 21,7 C 75 % 0 lf 999,4 hPa 0,0 l/m 0 min 0 min 194 W/m 25,1 km/h (4 Bft)
24.08.2015 14:44 22,8 C 21,7 C 75 % 0 lf 999,4 hPa 0,0 l/m 0 min 0 min 207 W/m 25,1 km/h (4 Bft)
24.08.2015 14:46 22,8 C 21,7 C 75 % 0 lf 999,5 hPa 0,0 l/m 0 min 0 min 147 W/m 25,1 km/h (4 Bft)
24.08.2015 14:48 22,8 C 21,7 C 74 % 0 lf 999,4 hPa 0,0 l/m 0 min 0 min 142 W/m 18,8 km/h (3 Bft)
24.08.2015 14:50 22,7 C 21,7 C 74 % 0 lf 999,4 hPa 0,0 l/m 0 min 0 min 162 W/m 43,9 km/h (6 Bft)
24.08.2015 14:52 22,7 C 21,1 C 73 % 0 lf 999,4 hPa 0,0 l/m 0 min 0 min 205 W/m 23,0 km/h (4 Bft)
24.08.2015 14:54 22,7 C 21,7 C 73 % 0 lf 999,3 hPa 0,0 l/m 0 min 0 min 229 W/m 33,5 km/h (5 Bft)
24.08.2015 14:56 22,7 C 21,7 C 73 % 0 lf 999,3 hPa 0,0 l/m 0 min 0 min 316 W/m 35,6 km/h (5 Bft)
24.08.2015 14:58 22,8 C 22,8 C 73 % 0 lf 999,3 hPa 0,0 l/m 2 min 0 min 535 W/m 27,2 km/h (4 Bft)
24.08.2015 15:00 22,8 C 23,3 C 73 % 0 lf 999,3 hPa 0,0 l/m 2 min 0 min 798 W/m 31,4 km/h (5 Bft)
24.08.2015 15:02 22,9 C 23,3 C 74 % 0 lf 999,2 hPa 0,0 l/m 2 min 0 min 915 W/m 14,6 km/h (3 Bft)
24.08.2015 15:04 23,1 C 23,9 C 74 % 0 lf 999,2 hPa 0,0 l/m 2 min 0 min 887 W/m 29,3 km/h (5 Bft)
24.08.2015 15:06 23,3 C 23,9 C 74 % 0 lf 999,2 hPa 0,0 l/m 2 min 0 min 844 W/m 23,0 km/h (4 Bft)
24.08.2015 15:08 23,5 C 23,9 C 73 % 0 lf 999,2 hPa 0,0 l/m 2 min 0 min 718 W/m 27,2 km/h (4 Bft)
24.08.2015 15:10 23,7 C 24,4 C 72 % 0 lf 999,2 hPa 0,0 l/m 2 min 0 min 696 W/m 35,6 km/h (5 Bft)
24.08.2015 15:12 23,9 C 23,9 C 71 % 0 lf 999,2 hPa 0,0 l/m 2 min 0 min 696 W/m 41,8 km/h (6 Bft)
24.08.2015 15:14 24,1 C 23,9 C 70 % 0 lf 999,3 hPa 0,0 l/m 2 min 0 min 696 W/m 31,4 km/h (5 Bft)
24.08.2015 15:16 24,1 C 23,3 C 70 % 0 lf 999,3 hPa 0,0 l/m 2 min 0 min 401 W/m 31,4 km/h (5 Bft)
24.08.2015 15:18 24,2 C 23,9 C 71 % 0 lf 999,3 hPa 0,0 l/m 2 min 0 min 446 W/m 31,4 km/h (5 Bft)
24.08.2015 15:20 24,3 C 23,9 C 70 % 0 lf 999,3 hPa 0,0 l/m 2 min 0 min 416 W/m 43,9 km/h (6 Bft)
24.08.2015 15:22 24,3 C 23,9 C 70 % 0 lf 999,3 hPa 0,0 l/m 2 min 0 min 438 W/m 35,6 km/h (5 Bft)
24.08.2015 15:24 24,3 C 23,3 C 70 % 0 lf 999,3 hPa 0,0 l/m 2 min 0 min 452 W/m 43,9 km/h (6 Bft)
24.08.2015 15:26 24,3 C 23,3 C 71 % 0 lf 999,4 hPa 0,0 l/m 2 min 0 min 510 W/m 39,7 km/h (6 Bft)
24.08.2015 15:28 24,4 C 23,9 C 73 % 0 lf 999,2 hPa 0,0 l/m 2 min 0 min 784 W/m 43,9 km/h (6 Bft)
24.08.2015 15:30 24,4 C 23,3 C 73 % 0 lf 999,2 hPa 0,0 l/m 2 min 0 min 784 W/m 37,7 km/h (5 Bft)
24.08.2015 15:32 24,3 C 23,3 C 72 % 0 lf 999,3 hPa 0,0 l/m 2 min 0 min 459 W/m 35,6 km/h (5 Bft)
24.08.2015 15:34 24,3 C 22,8 C 72 % 0 lf 999,4 hPa 0,0 l/m 2 min 0 min 349 W/m 35,6 km/h (5 Bft)
24.08.2015 15:36 24,2 C 22,8 C 73 % 0 lf 999,3 hPa 0,0 l/m 0 min 0 min 276 W/m 27,2 km/h (4 Bft)
24.08.2015 15:38 24,1 C 22,8 C 74 % 0 lf 999,3 hPa 0,0 l/m 0 min 0 min 285 W/m 35,6 km/h (5 Bft)
24.08.2015 15:40 23,9 C 22,2 C 74 % 0 lf 999,3 hPa 0,0 l/m 0 min 0 min 275 W/m 33,5 km/h (5 Bft)
24.08.2015 15:42 23,9 C 22,2 C 74 % 0 lf 999,2 hPa 0,0 l/m 0 min 0 min 234 W/m 31,4 km/h (5 Bft)
24.08.2015 15:44 23,8 C 22,2 C 75 % 0 lf 999,3 hPa 0,0 l/m 0 min 0 min 226 W/m 23,0 km/h (4 Bft)
24.08.2015 15:46 23,7 C 22,2 C 75 % 0 lf 999,2 hPa 0,0 l/m 0 min 0 min 263 W/m 33,5 km/h (5 Bft)
24.08.2015 15:48 23,7 C 22,2 C 76 % 0 lf 999,1 hPa 0,0 l/m 0 min 0 min 324 W/m 29,3 km/h (5 Bft)
24.08.2015 15:50 23,6 C 22,8 C 76 % 0 lf 999,2 hPa 0,0 l/m 0 min 0 min 315 W/m 35,6 km/h (5 Bft)
24.08.2015 15:52 23,6 C 22,8 C 76 % 0 lf 999,2 hPa 0,0 l/m 2 min 0 min 418 W/m 33,5 km/h (5 Bft)
24.08.2015 15:54 23,6 C 22,8 C 76 % 0 lf 999,1 hPa 0,0 l/m 2 min 0 min 455 W/m 20,9 km/h (4 Bft)
24.08.2015 15:56 23,6 C 23,3 C 77 % 0 lf 999,1 hPa 0,0 l/m 2 min 0 min 366 W/m 29,3 km/h (5 Bft)
24.08.2015 15:58 23,6 C 23,3 C 77 % 0 lf 999,1 hPa 0,0 l/m 2 min 0 min 372 W/m 31,4 km/h (5 Bft)
24.08.2015 16:00 23,7 C 23,3 C 77 % 0 lf 999,1 hPa 0,0 l/m 2 min 0 min 373 W/m 29,3 km/h (5 Bft)
24.08.2015 16:02 23,7 C 22,8 C 76 % 0 lf 999,1 hPa 0,0 l/m 0 min 0 min 222 W/m 35,6 km/h (5 Bft)
24.08.2015 16:04 23,6 C 22,2 C 75 % 0 lf 999,1 hPa 0,0 l/m 0 min 0 min 207 W/m 27,2 km/h (4 Bft)
24.08.2015 16:06 23,6 C 22,2 C 75 % 0 lf 999,2 hPa 0,0 l/m 0 min 0 min 225 W/m 27,2 km/h (4 Bft)
24.08.2015 16:08 23,6 C 22,8 C 76 % 0 lf 999,1 hPa 0,0 l/m 0 min 0 min 225 W/m 29,3 km/h (5 Bft)
24.08.2015 16:10 23,6 C 22,8 C 76 % 0 lf 999,1 hPa 0,0 l/m 2 min 0 min 682 W/m 31,4 km/h (5 Bft)
24.08.2015 16:12 23,6 C 23,3 C 76 % 0 lf 999,1 hPa 0,0 l/m 2 min 0 min 640 W/m 29,3 km/h (5 Bft)
24.08.2015 16:14 23,7 C 23,3 C 77 % 0 lf 999,1 hPa 0,0 l/m 2 min 0 min 619 W/m 31,4 km/h (5 Bft)
24.08.2015 16:16 23,8 C 23,3 C 76 % 0 lf 999,1 hPa 0,0 l/m 2 min 0 min 614 W/m 31,4 km/h (5 Bft)
24.08.2015 16:18 23,8 C 23,3 C 76 % 0 lf 999,1 hPa 0,0 l/m 2 min 0 min 596 W/m 39,7 km/h (6 Bft)
24.08.2015 16:20 23,9 C 23,3 C 76 % 0 lf 999,0 hPa 0,0 l/m 2 min 0 min 603 W/m 35,6 km/h (5 Bft)
24.08.2015 16:22 23,9 C 22,8 C 75 % 0 lf 998,9 hPa 0,0 l/m 2 min 0 min 542 W/m 29,3 km/h (5 Bft)
24.08.2015 16:24 23,9 C 22,2 C 75 % 0 lf 998,9 hPa 0,0 l/m 0 min 0 min 122 W/m 20,9 km/h (4 Bft)
24.08.2015 16:26 23,9 C 22,2 C 75 % 0 lf 999,0 hPa 0,0 l/m 0 min 0 min 159 W/m 25,1 km/h (4 Bft)
24.08.2015 16:28 23,9 C 24,4 C 75 % 0 lf 998,9 hPa 0,0 l/m 2 min 0 min 442 W/m 23,0 km/h (4 Bft)
24.08.2015 16:30 23,9 C 25,6 C 76 % 0 lf 998,8 hPa 0,0 l/m 2 min 0 min 641 W/m 33,5 km/h (5 Bft)
24.08.2015 16:32 23,9 C 24,4 C 74 % 0 lf 998,8 hPa 0,0 l/m 2 min 0 min 471 W/m 27,2 km/h (4 Bft)
24.08.2015 16:34 23,9 C 23,9 C 74 % 0 lf 999,0 hPa 0,0 l/m 0 min 0 min 178 W/m 27,2 km/h (4 Bft)
24.08.2015 16:36 23,9 C 22,8 C 72 % 0 lf 998,9 hPa 0,0 l/m 0 min 0 min 126 W/m 33,5 km/h (5 Bft)
24.08.2015 16:38 23,8 C 22,2 C 71 % 0 lf 998,8 hPa 0,0 l/m 0 min 0 min 129 W/m 31,4 km/h (5 Bft)
24.08.2015 16:40 23,8 C 22,2 C 71 % 0 lf 998,8 hPa 0,0 l/m 0 min 0 min 164 W/m 29,3 km/h (5 Bft)
24.08.2015 16:42 23,8 C 22,8 C 70 % 0 lf 999,0 hPa 0,0 l/m 0 min 0 min 275 W/m 33,5 km/h (5 Bft)
24.08.2015 16:44 23,8 C 22,8 C 70 % 0 lf 998,9 hPa 0,0 l/m 2 min 0 min 287 W/m 27,2 km/h (4 Bft)
24.08.2015 16:46 23,8 C 22,8 C 70 % 0 lf 998,8 hPa 0,0 l/m 0 min 0 min 211 W/m 20,9 km/h (4 Bft)
24.08.2015 16:48 23,8 C 22,8 C 70 % 0 lf 998,9 hPa 0,0 l/m 0 min 0 min 149 W/m 16,7 km/h (3 Bft)
24.08.2015 16:50 23,8 C 22,8 C 70 % 0 lf 998,9 hPa 0,0 l/m 0 min 0 min 151 W/m 25,1 km/h (4 Bft)
24.08.2015 16:52 23,8 C 22,2 C 70 % 0 lf 999,0 hPa 0,0 l/m 0 min 0 min 149 W/m 37,7 km/h (5 Bft)
24.08.2015 16:54 23,7 C 22,2 C 69 % 0 lf 998,8 hPa 0,0 l/m 0 min 0 min 169 W/m 43,9 km/h (6 Bft)
24.08.2015 16:56 23,7 C 22,2 C 68 % 0 lf 998,8 hPa 0,0 l/m 0 min 0 min 188 W/m 33,5 km/h (5 Bft)
24.08.2015 16:58 23,7 C 22,2 C 68 % 0 lf 999,0 hPa 0,0 l/m 0 min 0 min 204 W/m 39,7 km/h (6 Bft)
24.08.2015 17:00 23,7 C 22,8 C 67 % 0 lf 998,9 hPa 0,0 l/m 0 min 0 min 236 W/m 43,9 km/h (6 Bft)
24.08.2015 17:02 23,7 C 22,8 C 66 % 0 lf 999,0 hPa 0,0 l/m 0 min 0 min 219 W/m 41,8 km/h (6 Bft)
24.08.2015 17:04 23,8 C 22,8 C 65 % 0 lf 999,0 hPa 0,0 l/m 2 min 0 min 432 W/m 37,7 km/h (5 Bft)
24.08.2015 17:06 23,8 C 22,8 C 65 % 0 lf 999,0 hPa 0,0 l/m 0 min 0 min 236 W/m 37,7 km/h (5 Bft)
24.08.2015 17:08 23,8 C 22,2 C 65 % 0 lf 999,0 hPa 0,0 l/m 0 min 0 min 132 W/m 35,6 km/h (5 Bft)
24.08.2015 17:10 23,9 C 22,2 C 65 % 0 lf 999,0 hPa 0,0 l/m 0 min 0 min 147 W/m 25,1 km/h (4 Bft)
24.08.2015 17:12 23,9 C 22,2 C 65 % 0 lf 999,1 hPa 0,0 l/m 0 min 0 min 160 W/m 33,5 km/h (5 Bft)
24.08.2015 17:14 23,9 C 22,2 C 65 % 0 lf 999,1 hPa 0,0 l/m 0 min 0 min 167 W/m 33,5 km/h (5 Bft)
24.08.2015 17:16 23,9 C 22,8 C 65 % 0 lf 999,1 hPa 0,0 l/m 2 min 0 min 459 W/m 43,9 km/h (6 Bft)
24.08.2015 17:18 23,9 C 22,8 C 65 % 0 lf 999,1 hPa 0,0 l/m 2 min 0 min 593 W/m 37,7 km/h (5 Bft)
24.08.2015 17:20 24,0 C 22,8 C 65 % 0 lf 999,1 hPa 0,0 l/m 2 min 0 min 581 W/m 37,7 km/h (5 Bft)
24.08.2015 17:22 24,2 C 22,8 C 65 % 0 lf 999,1 hPa 0,0 l/m 2 min 0 min 563 W/m 41,8 km/h (6 Bft)
24.08.2015 17:24 24,2 C 23,3 C 65 % 0 lf 999,0 hPa 0,0 l/m 2 min 0 min 572 W/m 37,7 km/h (5 Bft)
24.08.2015 17:26 24,4 C 23,3 C 65 % 0 lf 998,9 hPa 0,0 l/m 2 min 0 min 568 W/m 31,4 km/h (5 Bft)
24.08.2015 17:28 24,4 C 23,3 C 64 % 0 lf 999,0 hPa 0,0 l/m 2 min 0 min 570 W/m 33,5 km/h (5 Bft)
24.08.2015 17:30 24,6 C 23,3 C 64 % 0 lf 999,0 hPa 0,0 l/m 2 min 0 min 565 W/m 33,5 km/h (5 Bft)
24.08.2015 17:32 24,7 C 23,3 C 63 % 0 lf 999,0 hPa 0,0 l/m 2 min 0 min 532 W/m 39,7 km/h (6 Bft)
24.08.2015 17:34 24,7 C 23,3 C 63 % 0 lf 999,0 hPa 0,0 l/m 2 min 0 min 452 W/m 33,5 km/h (5 Bft)
24.08.2015 17:36 24,8 C 22,8 C 61 % 0 lf 999,0 hPa 0,0 l/m 2 min 0 min 506 W/m 41,8 km/h (6 Bft)
24.08.2015 17:38 24,8 C 22,8 C 61 % 0 lf 999,1 hPa 0,0 l/m 2 min 0 min 492 W/m 50,2 km/h (7 Bft)
24.08.2015 17:40 24,8 C 22,8 C 58 % 0 lf 999,1 hPa 0,0 l/m 2 min 0 min 456 W/m 50,2 km/h (7 Bft)
24.08.2015 17:42 24,8 C 22,8 C 58 % 0 lf 999,2 hPa 0,0 l/m 2 min 0 min 444 W/m 25,1 km/h (4 Bft)
24.08.2015 17:44 24,8 C 22,8 C 57 % 0 lf 999,2 hPa 0,0 l/m 2 min 0 min 436 W/m 35,6 km/h (5 Bft)
24.08.2015 17:46 24,8 C 22,2 C 56 % 0 lf 999,2 hPa 0,0 l/m 2 min 0 min 423 W/m 37,7 km/h (5 Bft)
24.08.2015 17:48 24,7 C 22,2 C 55 % 0 lf 999,2 hPa 0,0 l/m 2 min 0 min 414 W/m 48,1 km/h (6 Bft)
24.08.2015 17:50 24,7 C 22,2 C 55 % 0 lf 999,1 hPa 0,0 l/m 2 min 0 min 400 W/m 35,6 km/h (5 Bft)
24.08.2015 17:52 24,7 C 22,2 C 56 % 0 lf 999,2 hPa 0,0 l/m 2 min 0 min 396 W/m 29,3 km/h (5 Bft)
24.08.2015 17:54 24,7 C 22,2 C 55 % 0 lf 999,3 hPa 0,0 l/m 2 min 0 min 400 W/m 41,8 km/h (6 Bft)
24.08.2015 17:56 24,6 C 22,2 C 55 % 0 lf 999,2 hPa 0,0 l/m 2 min 0 min 374 W/m 31,4 km/h (5 Bft)
24.08.2015 17:58 24,6 C 22,2 C 55 % 0 lf 999,2 hPa 0,0 l/m 2 min 0 min 362 W/m 33,5 km/h (5 Bft)
24.08.2015 18:00 24,5 C 22,2 C 55 % 0 lf 999,2 hPa 0,0 l/m 2 min 0 min 384 W/m 39,7 km/h (6 Bft)
24.08.2015 18:02 24,5 C 22,2 C 55 % 0 lf 999,1 hPa 0,0 l/m 2 min 0 min 387 W/m 29,3 km/h (5 Bft)
24.08.2015 18:06 24,4 C 22,2 C 56 % 0 lf 999,3 hPa 0,0 l/m 0 min 0 min 144 W/m 29,3 km/h (5 Bft)
24.08.2015 18:10 24,3 C 21,7 C 56 % 0 lf 999,3 hPa 0,0 l/m 0 min 0 min 158 W/m 33,5 km/h (5 Bft)
24.08.2015 18:12 24,2 C 22,2 C 56 % 0 lf 999,3 hPa 0,0 l/m 0 min 0 min 130 W/m 35,6 km/h (5 Bft)
24.08.2015 18:14 24,2 C 22,2 C 56 % 0 lf 999,4 hPa 0,0 l/m 0 min 0 min 128 W/m 35,6 km/h (5 Bft)
24.08.2015 18:16 24,1 C 21,7 C 54 % 0 lf 999,3 hPa 0,0 l/m 0 min 0 min 120 W/m 50,2 km/h (7 Bft)
24.08.2015 18:18 24,1 C 21,7 C 55 % 0 lf 999,3 hPa 0,0 l/m 0 min 0 min 118 W/m 37,7 km/h (5 Bft)
24.08.2015 18:20 24,0 C 21,7 C 54 % 0 lf 999,3 hPa 0,0 l/m 0 min 0 min 133 W/m 35,6 km/h (5 Bft)
24.08.2015 18:22 23,9 C 21,7 C 55 % 0 lf 999,5 hPa 0,0 l/m 0 min 0 min 149 W/m 41,8 km/h (6 Bft)
24.08.2015 18:24 23,9 C 21,7 C 55 % 0 lf 999,5 hPa 0,0 l/m 0 min 0 min 144 W/m 29,3 km/h (5 Bft)
24.08.2015 18:26 23,8 C 21,7 C 55 % 0 lf 999,5 hPa 0,0 l/m 0 min 0 min 134 W/m 39,7 km/h (6 Bft)
24.08.2015 18:28 23,8 C 21,7 C 55 % 0 lf 999,5 hPa 0,0 l/m 0 min 0 min 122 W/m 35,6 km/h (5 Bft)
24.08.2015 18:30 23,8 C 21,7 C 55 % 0 lf 999,5 hPa 0,0 l/m 0 min 0 min 104 W/m 37,7 km/h (5 Bft)
24.08.2015 18:32 23,7 C 21,7 C 55 % 0 lf 999,5 hPa 0,0 l/m 0 min 0 min 99 W/m 46,0 km/h (6 Bft)
24.08.2015 18:34 23,7 C 21,7 C 55 % 0 lf 999,4 hPa 0,0 l/m 0 min 0 min 98 W/m 35,6 km/h (5 Bft)
24.08.2015 18:36 23,6 C 21,7 C 56 % 0 lf 999,4 hPa 0,0 l/m 0 min 0 min 87 W/m 23,0 km/h (4 Bft)
24.08.2015 18:38 23,6 C 21,1 C 56 % 0 lf 999,4 hPa 0,0 l/m 0 min 0 min 76 W/m 29,3 km/h (5 Bft)
24.08.2015 18:40 23,5 C 21,1 C 56 % 0 lf 999,4 hPa 0,0 l/m 0 min 0 min 63 W/m 33,5 km/h (5 Bft)
24.08.2015 18:42 23,4 C 21,1 C 56 % 0 lf 999,5 hPa 0,0 l/m 0 min 0 min 53 W/m 20,9 km/h (4 Bft)
24.08.2015 18:44 23,4 C 21,1 C 56 % 0 lf 999,5 hPa 0,0 l/m 0 min 0 min 49 W/m 23,0 km/h (4 Bft)
24.08.2015 18:46 23,4 C 21,1 C 57 % 0 lf 999,5 hPa 0,0 l/m 0 min 0 min 47 W/m 27,2 km/h (4 Bft)
24.08.2015 18:48 23,3 C 21,1 C 57 % 0 lf 999,5 hPa 0,0 l/m 0 min 0 min 38 W/m 14,6 km/h (3 Bft)
24.08.2015 18:50 23,3 C 21,1 C 57 % 0 lf 999,5 hPa 0,0 l/m 0 min 0 min 31 W/m 18,8 km/h (3 Bft)
24.08.2015 18:52 23,3 C 21,1 C 57 % 0 lf 999,5 hPa 0,0 l/m 0 min 0 min 26 W/m 25,1 km/h (4 Bft)
24.08.2015 18:54 23,2 C 20,6 C 57 % 0 lf 999,6 hPa 0,0 l/m 0 min 0 min 26 W/m 27,2 km/h (4 Bft)
24.08.2015 18:56 23,2 C 20,6 C 58 % 0 lf 999,8 hPa 0,0 l/m 0 min 2 min 31 W/m 31,4 km/h (5 Bft)
24.08.2015 18:58 23,1 C 20,6 C 58 % 1 lf 999,8 hPa 0,0 l/m 0 min 0 min 29 W/m 43,9 km/h (6 Bft)
24.08.2015 19:00 23,0 C 20,0 C 59 % 3 lf 999,8 hPa 0,0 l/m 0 min 2 min 25 W/m 48,1 km/h (6 Bft)
24.08.2015 19:01 22,9 C 19,4 C 59 % 0 lf 999,9 hPa 0,0 l/m 0 min 1 min 25 W/m 54,4 km/h (7 Bft)
24.08.2015 19:02 22,8 C 19,4 C 60 % 6 lf 999,9 hPa 0,0 l/m 0 min 1 min 25 W/m 54,4 km/h (7 Bft)
24.08.2015 19:03 22,8 C 18,9 C 61 % 7 lf 1000,0 hPa 0,0 l/m 0 min 1 min 26 W/m 43,9 km/h (6 Bft)
24.08.2015 19:04 22,7 C 18,3 C 62 % 1 lf 1000,2 hPa 0,0 l/m 0 min 1 min 32 W/m 31,4 km/h (5 Bft)
24.08.2015 19:05 22,6 C 18,3 C 62 % 0 lf 1000,3 hPa 0,0 l/m 0 min 1 min 40 W/m 29,3 km/h (5 Bft)
24.08.2015 19:06 22,5 C 18,3 C 63 % 15 lf 1000,2 hPa 0,0 l/m 0 min 1 min 49 W/m 29,3 km/h (5 Bft)
24.08.2015 19:08 22,3 C 17,2 C 66 % 15 lf 1000,2 hPa 0,0 l/m 0 min 2 min 67 W/m 37,7 km/h (5 Bft)
24.08.2015 19:10 22,0 C 16,7 C 67 % 15 lf 1000,1 hPa 0,0 l/m 0 min 2 min 69 W/m 33,5 km/h (5 Bft)
24.08.2015 19:12 21,7 C 16,7 C 68 % 15 lf 999,9 hPa 0,0 l/m 0 min 2 min 78 W/m 39,7 km/h (6 Bft)
24.08.2015 19:14 21,5 C 16,7 C 69 % 15 lf 1000,0 hPa 0,0 l/m 2 min 2 min 133 W/m 20,9 km/h (4 Bft)
24.08.2015 19:16 21,3 C 17,2 C 69 % 15 lf 1000,0 hPa 0,0 l/m 0 min 0 min 50 W/m 25,1 km/h (4 Bft)
24.08.2015 19:18 21,2 C 17,2 C 70 % 10 lf 1000,0 hPa 0,0 l/m 0 min 0 min 32 W/m 14,6 km/h (3 Bft)
24.08.2015 19:20 21,1 C 17,2 C 70 % 14 lf 1000,2 hPa 0,0 l/m 0 min 2 min 23 W/m 23,0 km/h (4 Bft)
24.08.2015 19:22 20,9 C 16,7 C 71 % 14 lf 1000,1 hPa 0,0 l/m 0 min 2 min 21 W/m 23,0 km/h (4 Bft)
24.08.2015 19:24 20,8 C 15,6 C 72 % 15 lf 1000,2 hPa 0,2 l/m 0 min 2 min 23 W/m 27,2 km/h (4 Bft)
24.08.2015 19:26 20,7 C 15,6 C 73 % 15 lf 1000,2 hPa 0,0 l/m 0 min 2 min 28 W/m 29,3 km/h (5 Bft)
24.08.2015 19:28 20,5 C 15,0 C 74 % 15 lf 999,9 hPa 0,2 l/m 0 min 2 min 32 W/m 37,7 km/h (5 Bft)
24.08.2015 19:30 20,3 C 15,0 C 75 % 15 lf 999,8 hPa 0,0 l/m 0 min 2 min 39 W/m 27,2 km/h (4 Bft)
24.08.2015 19:32 20,1 C 15,0 C 76 % 15 lf 1000,1 hPa 0,0 l/m 0 min 2 min 39 W/m 33,5 km/h (5 Bft)
24.08.2015 19:34 19,9 C 15,0 C 77 % 15 lf 1000,2 hPa 0,0 l/m 0 min 0 min 32 W/m 25,1 km/h (4 Bft)
24.08.2015 19:36 19,7 C 15,0 C 78 % 15 lf 1000,2 hPa 0,0 l/m 0 min 0 min 30 W/m 16,7 km/h (3 Bft)
24.08.2015 19:38 19,6 C 15,6 C 79 % 15 lf 1000,2 hPa 0,0 l/m 0 min 0 min 29 W/m 14,6 km/h (3 Bft)
24.08.2015 19:40 19,5 C 15,6 C 79 % 15 lf 1000,2 hPa 0,0 l/m 0 min 0 min 17 W/m 12,6 km/h (3 Bft)
24.08.2015 19:42 19,4 C 15,6 C 79 % 15 lf 1000,2 hPa 0,0 l/m 0 min 0 min 11 W/m 14,6 km/h (3 Bft)
24.08.2015 19:44 19,3 C 15,6 C 81 % 15 lf 1000,6 hPa 0,2 l/m 0 min 2 min 14 W/m 16,7 km/h (3 Bft)
24.08.2015 19:46 19,2 C 15,0 C 81 % 15 lf 1000,2 hPa 0,2 l/m 0 min 2 min 23 W/m 18,8 km/h (3 Bft)
24.08.2015 19:48 19,1 C 15,0 C 82 % 15 lf 1000,2 hPa 0,0 l/m 0 min 2 min 34 W/m 12,6 km/h (3 Bft)
24.08.2015 19:50 19,0 C 15,0 C 82 % 15 lf 1000,1 hPa 0,0 l/m 0 min 0 min 37 W/m 23,0 km/h (4 Bft)
24.08.2015 19:52 18,9 C 15,0 C 82 % 15 lf 1000,2 hPa 0,0 l/m 0 min 0 min 37 W/m 25,1 km/h (4 Bft)
24.08.2015 19:54 18,8 C 15,0 C 83 % 15 lf 1000,2 hPa 0,0 l/m 0 min 0 min 42 W/m 16,7 km/h (3 Bft)
24.08.2015 19:56 18,7 C 15,0 C 83 % 15 lf 1000,2 hPa 0,0 l/m 2 min 0 min 49 W/m 18,8 km/h (3 Bft)
24.08.2015 19:58 18,6 C 15,0 C 84 % 15 lf 1000,2 hPa 0,0 l/m 2 min 0 min 48 W/m 18,8 km/h (3 Bft)
24.08.2015 20:00 18,5 C 15,0 C 84 % 15 lf 1000,2 hPa 0,0 l/m 0 min 0 min 41 W/m 18,8 km/h (3 Bft)
24.08.2015 20:02 18,4 C 15,6 C 84 % 15 lf 1000,1 hPa 0,0 l/m 0 min 0 min 36 W/m 18,8 km/h (3 Bft)
24.08.2015 20:04 18,3 C 15,0 C 84 % 13 lf 1000,2 hPa 0,0 l/m 0 min 0 min 31 W/m 23,0 km/h (4 Bft)
24.08.2015 20:06 18,3 C 15,0 C 84 % 9 lf 1000,3 hPa 0,0 l/m 0 min 0 min 26 W/m 18,8 km/h (3 Bft)
24.08.2015 20:08 18,2 C 15,0 C 84 % 3 lf 1000,2 hPa 0,0 l/m 0 min 0 min 23 W/m 23,0 km/h (4 Bft)
24.08.2015 20:10 18,2 C 15,0 C 84 % 0 lf 1000,2 hPa 0,0 l/m 0 min 0 min 20 W/m 14,6 km/h (3 Bft)
24.08.2015 20:12 18,2 C 15,0 C 84 % 0 lf 1000,2 hPa 0,0 l/m 0 min 0 min 18 W/m 27,2 km/h (4 Bft)
24.08.2015 20:14 18,2 C 15,0 C 84 % 0 lf 1000,3 hPa 0,0 l/m 0 min 0 min 16 W/m 23,0 km/h (4 Bft)
24.08.2015 20:16 18,2 C 15,0 C 83 % 0 lf 1000,3 hPa 0,0 l/m 0 min 0 min 15 W/m 31,4 km/h (5 Bft)
24.08.2015 20:18 18,1 C 15,0 C 83 % 0 lf 1000,4 hPa 0,0 l/m 0 min 0 min 14 W/m 18,8 km/h (3 Bft)
24.08.2015 20:20 18,1 C 15,0 C 83 % 0 lf 1000,5 hPa 0,0 l/m 0 min 0 min 12 W/m 29,3 km/h (5 Bft)
24.08.2015 20:22 18,1 C 15,0 C 82 % 0 lf 1000,4 hPa 0,0 l/m 0 min 0 min 12 W/m 31,4 km/h (5 Bft)
24.08.2015 20:24 18,2 C 15,0 C 81 % 0 lf 1000,5 hPa 0,0 l/m 0 min 0 min 11 W/m 31,4 km/h (5 Bft)
24.08.2015 20:26 18,2 C 15,0 C 81 % 0 lf 1000,5 hPa 0,0 l/m 0 min 0 min 11 W/m 31,4 km/h (5 Bft)
24.08.2015 20:28 18,2 C 15,0 C 80 % 0 lf 1000,4 hPa 0,0 l/m 0 min 0 min 8 W/m 27,2 km/h (4 Bft)
24.08.2015 20:30 18,3 C 15,0 C 80 % 0 lf 1000,5 hPa 0,0 l/m 0 min 0 min 6 W/m 27,2 km/h (4 Bft)
24.08.2015 20:32 18,3 C 15,6 C 80 % 0 lf 1000,5 hPa 0,0 l/m 0 min 0 min 5 W/m 29,3 km/h (5 Bft)
24.08.2015 20:34 18,4 C 15,6 C 79 % 0 lf 1000,6 hPa 0,0 l/m 0 min 0 min 5 W/m 35,6 km/h (5 Bft)
24.08.2015 20:36 18,6 C 15,6 C 78 % 0 lf 1000,6 hPa 0,0 l/m 0 min 0 min 1 W/m 37,7 km/h (5 Bft)
24.08.2015 20:38 18,6 C 15,6 C 78 % 0 lf 1000,7 hPa 0,0 l/m 0 min 0 min 0 W/m 29,3 km/h (5 Bft)
24.08.2015 20:40 18,7 C 15,6 C 78 % 0 lf 1000,7 hPa 0,0 l/m 0 min 0 min 0 W/m 29,3 km/h (5 Bft)
24.08.2015 20:42 18,8 C 15,6 C 77 % 0 lf 1000,6 hPa 0,0 l/m 0 min 0 min 0 W/m 25,1 km/h (4 Bft)
24.08.2015 20:44 18,8 C 15,6 C 77 % 0 lf 1000,7 hPa 0,0 l/m 0 min 0 min 0 W/m 31,4 km/h (5 Bft)
24.08.2015 20:46 18,9 C 15,6 C 77 % 0 lf 1000,8 hPa 0,0 l/m 0 min 0 min 0 W/m 33,5 km/h (5 Bft)
24.08.2015 20:48 18,9 C 15,6 C 77 % 0 lf 1000,8 hPa 0,0 l/m 0 min 0 min 0 W/m 31,4 km/h (5 Bft)
24.08.2015 20:50 18,9 C 15,6 C 76 % 0 lf 1000,8 hPa 0,0 l/m 0 min 0 min 0 W/m 35,6 km/h (5 Bft)
24.08.2015 20:52 19,0 C 15,6 C 76 % 0 lf 1000,8 hPa 0,0 l/m 0 min 0 min 0 W/m 33,5 km/h (5 Bft)
24.08.2015 20:54 19,0 C 15,6 C 76 % 0 lf 1000,8 hPa 0,0 l/m 0 min 0 min 0 W/m 23,0 km/h (4 Bft)
24.08.2015 20:56 19,1 C 15,6 C 76 % 0 lf 1000,9 hPa 0,0 l/m 0 min 0 min 0 W/m 18,8 km/h (3 Bft)
24.08.2015 20:58 19,1 C 15,6 C 76 % 0 lf 1000,9 hPa 0,0 l/m 0 min 0 min 0 W/m 16,7 km/h (3 Bft)
24.08.2015 21:00 19,1 C 15,6 C 76 % 0 lf 1000,9 hPa 0,0 l/m 0 min 0 min 0 W/m 27,2 km/h (4 Bft)
24.08.2015 21:02 19,1 C 15,6 C 76 % 0 lf 1001,0 hPa 0,0 l/m 0 min 0 min 0 W/m 35,6 km/h (5 Bft)
24.08.2015 21:04 19,1 C 15,6 C 76 % 0 lf 1001,0 hPa 0,0 l/m 0 min 0 min 0 W/m 14,6 km/h (3 Bft)
24.08.2015 21:06 19,2 C 15,6 C 76 % 0 lf 1001,0 hPa 0,0 l/m 0 min 0 min 0 W/m 16,7 km/h (3 Bft)
24.08.2015 21:08 19,2 C 15,6 C 75 % 0 lf 1001,0 hPa 0,0 l/m 0 min 0 min 0 W/m 18,8 km/h (3 Bft)
24.08.2015 21:10 19,2 C 15,6 C 75 % 0 lf 1001,1 hPa 0,0 l/m 0 min 0 min 0 W/m 18,8 km/h (3 Bft)
24.08.2015 21:12 19,2 C 15,6 C 75 % 0 lf 1001,1 hPa 0,0 l/m 0 min 0 min 0 W/m 18,8 km/h (3 Bft)
24.08.2015 21:14 19,2 C 15,6 C 75 % 0 lf 1001,2 hPa 0,0 l/m 0 min 0 min 0 W/m 14,6 km/h (3 Bft)
24.08.2015 21:16 19,2 C 15,6 C 75 % 0 lf 1001,2 hPa 0,0 l/m 0 min 0 min 0 W/m 25,1 km/h (4 Bft)
24.08.2015 21:18 19,2 C 15,6 C 74 % 0 lf 1001,2 hPa 0,0 l/m 0 min 0 min 0 W/m 20,9 km/h (4 Bft)
24.08.2015 21:20 19,2 C 15,6 C 74 % 0 lf 1001,1 hPa 0,0 l/m 0 min 0 min 0 W/m 27,2 km/h (4 Bft)
24.08.2015 21:22 19,2 C 15,6 C 74 % 0 lf 1001,2 hPa 0,0 l/m 0 min 0 min 0 W/m 20,9 km/h (4 Bft)
24.08.2015 21:24 19,2 C 15,6 C 74 % 0 lf 1001,2 hPa 0,0 l/m 0 min 0 min 0 W/m 27,2 km/h (4 Bft)
24.08.2015 21:26 19,2 C 15,6 C 74 % 0 lf 1001,2 hPa 0,0 l/m 0 min 0 min 0 W/m 12,6 km/h (3 Bft)
24.08.2015 21:28 19,2 C 16,1 C 74 % 0 lf 1001,2 hPa 0,0 l/m 0 min 0 min 0 W/m 10,5 km/h (2 Bft)
24.08.2015 21:30 19,2 C 16,1 C 74 % 0 lf 1001,2 hPa 0,0 l/m 0 min 0 min 0 W/m 23,0 km/h (4 Bft)
24.08.2015 21:32 19,2 C 16,1 C 74 % 0 lf 1001,3 hPa 0,0 l/m 0 min 0 min 0 W/m 25,1 km/h (4 Bft)
24.08.2015 21:34 19,2 C 16,1 C 74 % 0 lf 1001,2 hPa 0,0 l/m 0 min 0 min 0 W/m 27,2 km/h (4 Bft)
24.08.2015 21:36 19,2 C 16,1 C 74 % 0 lf 1001,3 hPa 0,0 l/m 0 min 0 min 0 W/m 18,8 km/h (3 Bft)
24.08.2015 21:38 19,2 C 16,1 C 73 % 0 lf 1001,3 hPa 0,0 l/m 0 min 0 min 0 W/m 31,4 km/h (5 Bft)
24.08.2015 21:40 19,3 C 16,1 C 73 % 0 lf 1001,3 hPa 0,0 l/m 0 min 0 min 0 W/m 18,8 km/h (3 Bft)
24.08.2015 21:42 19,3 C 16,1 C 73 % 0 lf 1001,3 hPa 0,0 l/m 0 min 0 min 0 W/m 23,0 km/h (4 Bft)
24.08.2015 21:44 19,3 C 16,7 C 73 % 0 lf 1001,4 hPa 0,0 l/m 0 min 0 min 0 W/m 27,2 km/h (4 Bft)
24.08.2015 21:46 19,3 C 16,7 C 72 % 0 lf 1001,5 hPa 0,0 l/m 0 min 0 min 0 W/m 37,7 km/h (5 Bft)
24.08.2015 21:48 19,3 C 17,2 C 72 % 0 lf 1001,4 hPa 0,0 l/m 0 min 0 min 0 W/m 33,5 km/h (5 Bft)
24.08.2015 21:50 19,4 C 17,2 C 72 % 0 lf 1001,4 hPa 0,0 l/m 0 min 0 min 0 W/m 20,9 km/h (4 Bft)
24.08.2015 21:52 19,4 C 17,2 C 72 % 0 lf 1001,4 hPa 0,0 l/m 0 min 0 min 0 W/m 33,5 km/h (5 Bft)
24.08.2015 21:54 19,4 C 17,2 C 72 % 0 lf 1001,4 hPa 0,0 l/m 0 min 0 min 0 W/m 37,7 km/h (5 Bft)
24.08.2015 21:56 19,4 C 17,8 C 71 % 0 lf 1001,4 hPa 0,0 l/m 0 min 0 min 0 W/m 39,7 km/h (6 Bft)
24.08.2015 21:58 19,4 C 17,8 C 71 % 0 lf 1001,4 hPa 0,0 l/m 0 min 0 min 0 W/m 37,7 km/h (5 Bft)
24.08.2015 22:00 19,5 C 17,8 C 71 % 0 lf 1001,4 hPa 0,0 l/m 0 min 0 min 0 W/m 27,2 km/h (4 Bft)
24.08.2015 22:02 19,5 C 17,8 C 71 % 0 lf 1001,4 hPa 0,0 l/m 0 min 0 min 0 W/m 25,1 km/h (4 Bft)
24.08.2015 22:04 19,5 C 17,8 C 71 % 0 lf 1001,4 hPa 0,0 l/m 0 min 0 min 0 W/m 25,1 km/h (4 Bft)
24.08.2015 22:06 19,5 C 17,8 C 70 % 0 lf 1001,4 hPa 0,0 l/m 0 min 0 min 0 W/m 37,7 km/h (5 Bft)
24.08.2015 22:08 19,5 C 17,8 C 70 % 0 lf 1001,3 hPa 0,0 l/m 0 min 0 min 0 W/m 37,7 km/h (5 Bft)
24.08.2015 22:10 19,5 C 17,8 C 70 % 0 lf 1001,3 hPa 0,0 l/m 0 min 0 min 0 W/m 23,0 km/h (4 Bft)
24.08.2015 22:12 19,5 C 17,8 C 70 % 0 lf 1001,4 hPa 0,0 l/m 0 min 0 min 0 W/m 29,3 km/h (5 Bft)
24.08.2015 22:14 19,5 C 17,8 C 71 % 0 lf 1001,3 hPa 0,0 l/m 0 min 0 min 0 W/m 25,1 km/h (4 Bft)
24.08.2015 22:16 19,5 C 17,8 C 71 % 0 lf 1001,3 hPa 0,0 l/m 0 min 0 min 0 W/m 33,5 km/h (5 Bft)
24.08.2015 22:18 19,5 C 17,8 C 71 % 0 lf 1001,5 hPa 0,0 l/m 0 min 0 min 0 W/m 29,3 km/h (5 Bft)
24.08.2015 22:20 19,4 C 17,2 C 71 % 0 lf 1001,5 hPa 0,0 l/m 0 min 0 min 0 W/m 27,2 km/h (4 Bft)
24.08.2015 22:22 19,4 C 17,2 C 71 % 0 lf 1001,5 hPa 0,0 l/m 0 min 0 min 0 W/m 27,2 km/h (4 Bft)
24.08.2015 22:24 19,4 C 17,8 C 71 % 0 lf 1001,6 hPa 0,0 l/m 0 min 0 min 0 W/m 31,4 km/h (5 Bft)
24.08.2015 22:26 19,4 C 17,8 C 71 % 0 lf 1001,6 hPa 0,0 l/m 0 min 0 min 0 W/m 37,7 km/h (5 Bft)
24.08.2015 22:28 19,4 C 17,8 C 71 % 0 lf 1001,6 hPa 0,0 l/m 0 min 0 min 0 W/m 31,4 km/h (5 Bft)
24.08.2015 22:30 19,4 C 17,8 C 71 % 0 lf 1001,6 hPa 0,0 l/m 0 min 0 min 0 W/m 35,6 km/h (5 Bft)
24.08.2015 22:32 19,4 C 17,8 C 71 % 0 lf 1001,6 hPa 0,0 l/m 0 min 0 min 0 W/m 37,7 km/h (5 Bft)
24.08.2015 22:34 19,4 C 17,8 C 70 % 0 lf 1001,7 hPa 0,0 l/m 0 min 0 min 0 W/m 29,3 km/h (5 Bft)
24.08.2015 22:36 19,4 C 17,8 C 71 % 0 lf 1001,7 hPa 0,0 l/m 0 min 0 min 0 W/m 29,3 km/h (5 Bft)
24.08.2015 22:38 19,3 C 17,2 C 71 % 0 lf 1001,8 hPa 0,0 l/m 0 min 0 min 0 W/m 27,2 km/h (4 Bft)
24.08.2015 22:40 19,3 C 17,2 C 71 % 0 lf 1001,9 hPa 0,0 l/m 0 min 0 min 0 W/m 33,5 km/h (5 Bft)
24.08.2015 22:42 19,3 C 17,2 C 71 % 0 lf 1001,9 hPa 0,0 l/m 0 min 0 min 0 W/m 31,4 km/h (5 Bft)
24.08.2015 22:44 19,3 C 17,2 C 71 % 0 lf 1001,9 hPa 0,0 l/m 0 min 0 min 0 W/m 33,5 km/h (5 Bft)
24.08.2015 22:46 19,2 C 17,2 C 71 % 0 lf 1001,9 hPa 0,0 l/m 0 min 0 min 0 W/m 41,8 km/h (6 Bft)
24.08.2015 22:48 19,2 C 17,2 C 71 % 0 lf 1001,9 hPa 0,0 l/m 0 min 0 min 0 W/m 29,3 km/h (5 Bft)
24.08.2015 22:50 19,2 C 17,2 C 72 % 0 lf 1002,0 hPa 0,0 l/m 0 min 0 min 0 W/m 33,5 km/h (5 Bft)
24.08.2015 22:52 19,2 C 17,2 C 72 % 0 lf 1002,0 hPa 0,0 l/m 0 min 0 min 0 W/m 39,7 km/h (6 Bft)
24.08.2015 22:54 19,1 C 17,2 C 72 % 0 lf 1001,9 hPa 0,0 l/m 0 min 0 min 0 W/m 37,7 km/h (5 Bft)
24.08.2015 22:56 19,1 C 17,2 C 72 % 0 lf 1002,1 hPa 0,0 l/m 0 min 0 min 0 W/m 43,9 km/h (6 Bft)
24.08.2015 22:58 19,1 C 17,2 C 72 % 0 lf 1002,0 hPa 0,0 l/m 0 min 0 min 0 W/m 35,6 km/h (5 Bft)
24.08.2015 23:00 19,0 C 17,2 C 72 % 0 lf 1002,1 hPa 0,0 l/m 0 min 0 min 0 W/m 37,7 km/h (5 Bft)
24.08.2015 23:02 19,0 C 17,2 C 72 % 0 lf 1002,1 hPa 0,0 l/m 0 min 0 min 0 W/m 35,6 km/h (5 Bft)
24.08.2015 23:04 18,9 C 17,2 C 73 % 0 lf 1002,1 hPa 0,0 l/m 0 min 0 min 0 W/m 25,1 km/h (4 Bft)
24.08.2015 23:06 18,9 C 17,2 C 73 % 0 lf 1002,2 hPa 0,0 l/m 0 min 0 min 0 W/m 29,3 km/h (5 Bft)
24.08.2015 23:08 18,9 C 17,2 C 73 % 0 lf 1002,2 hPa 0,0 l/m 0 min 0 min 0 W/m 35,6 km/h (5 Bft)
24.08.2015 23:10 18,8 C 16,7 C 73 % 0 lf 1002,2 hPa 0,0 l/m 0 min 0 min 0 W/m 27,2 km/h (4 Bft)
24.08.2015 23:12 18,8 C 16,7 C 73 % 0 lf 1002,2 hPa 0,0 l/m 0 min 0 min 0 W/m 35,6 km/h (5 Bft)
24.08.2015 23:14 18,8 C 16,7 C 73 % 0 lf 1002,2 hPa 0,0 l/m 0 min 0 min 0 W/m 35,6 km/h (5 Bft)
24.08.2015 23:16 18,7 C 16,7 C 73 % 0 lf 1002,2 hPa 0,0 l/m 0 min 0 min 0 W/m 46,0 km/h (6 Bft)
24.08.2015 23:18 18,7 C 16,7 C 74 % 0 lf 1002,2 hPa 0,0 l/m 0 min 0 min 0 W/m 37,7 km/h (5 Bft)
24.08.2015 23:20 18,7 C 16,7 C 74 % 0 lf 1002,4 hPa 0,0 l/m 0 min 0 min 0 W/m 43,9 km/h (6 Bft)
24.08.2015 23:22 18,6 C 16,7 C 74 % 0 lf 1002,4 hPa 0,0 l/m 0 min 0 min 0 W/m 41,8 km/h (6 Bft)
24.08.2015 23:24 18,6 C 16,7 C 75 % 0 lf 1002,3 hPa 0,0 l/m 0 min 0 min 0 W/m 33,5 km/h (5 Bft)
24.08.2015 23:26 18,6 C 16,7 C 75 % 0 lf 1002,4 hPa 0,0 l/m 0 min 0 min 0 W/m 23,0 km/h (4 Bft)
24.08.2015 23:28 18,5 C 16,7 C 75 % 0 lf 1002,3 hPa 0,0 l/m 0 min 0 min 0 W/m 33,5 km/h (5 Bft)
24.08.2015 23:30 18,4 C 16,7 C 75 % 0 lf 1002,4 hPa 0,0 l/m 0 min 0 min 0 W/m 31,4 km/h (5 Bft)
24.08.2015 23:32 18,4 C 16,7 C 76 % 0 lf 1002,4 hPa 0,0 l/m 0 min 0 min 0 W/m 31,4 km/h (5 Bft)
24.08.2015 23:34 18,4 C 16,7 C 76 % 0 lf 1002,4 hPa 0,0 l/m 0 min 0 min 0 W/m 25,1 km/h (4 Bft)
24.08.2015 23:36 18,3 C 16,7 C 76 % 0 lf 1002,5 hPa 0,0 l/m 0 min 0 min 0 W/m 23,0 km/h (4 Bft)
24.08.2015 23:38 18,3 C 16,7 C 76 % 0 lf 1002,4 hPa 0,0 l/m 0 min 0 min 0 W/m 25,1 km/h (4 Bft)
24.08.2015 23:40 18,3 C 16,7 C 76 % 0 lf 1002,4 hPa 0,0 l/m 0 min 0 min 0 W/m 43,9 km/h (6 Bft)
24.08.2015 23:42 18,2 C 16,7 C 76 % 0 lf 1002,4 hPa 0,0 l/m 0 min 0 min 0 W/m 27,2 km/h (4 Bft)
24.08.2015 23:44 18,2 C 16,7 C 76 % 0 lf 1002,4 hPa 0,0 l/m 0 min 0 min 0 W/m 37,7 km/h (5 Bft)
24.08.2015 23:46 18,2 C 16,7 C 76 % 1 lf 1002,5 hPa 0,0 l/m 0 min 0 min 0 W/m 35,6 km/h (5 Bft)
24.08.2015 23:48 18,1 C 16,7 C 77 % 0 lf 1002,5 hPa 0,0 l/m 0 min 0 min 0 W/m 18,8 km/h (3 Bft)
24.08.2015 23:50 18,1 C 16,1 C 77 % 0 lf 1002,5 hPa 0,0 l/m 0 min 0 min 0 W/m 39,7 km/h (6 Bft)
24.08.2015 23:52 18,1 C 16,1 C 77 % 0 lf 1002,6 hPa 0,0 l/m 0 min 2 min 0 W/m 20,9 km/h (4 Bft)
24.08.2015 23:54 18,1 C 16,1 C 77 % 0 lf 1002,6 hPa 0,0 l/m 0 min 2 min 0 W/m 27,2 km/h (4 Bft)
24.08.2015 23:56 18,0 C 16,1 C 78 % 0 lf 1002,5 hPa 0,0 l/m 0 min 0 min 0 W/m 41,8 km/h (6 Bft)
24.08.2015 23:58 17,9 C 16,1 C 78 % 0 lf 1002,6 hPa 0,0 l/m 0 min 0 min 0 W/m 35,6 km/h (5 Bft)
_ Min-Zeit 07:00 06:18 18:16 09:36 16:30 - - - - 01:36
Minimum _ 15,7 C 13,9 C 54 % 0 lf 998,8 hPa - - - - 2,1 km/h (1 Bft)
_ Max-Zeit 17:36 16:30 09:00 00:00 00:07 00:07 07:16 00:00 13:42 19:01
Maximum _ 24,8 C 25,6 C 99 % 15 lf 1004,1 hPa 0,6 l/m 2 min 2 min 1035 W/m 54,4 km/h
S-SW (7 Bft)
Durchschnitt _ 19,4 C 17,9 C 84 % 7 lf 1001,7 hPa #6,6 l/m #6:38 h #3:22 h 276 W/m 19,0 km/h (3 Bft)
© 2015 W. Hausmann